CFG016 EDDF-KJFK
Flight info
| Callsign | CFG016 |
|---|---|
| Flight time | 7h 51m |
| Altitude | 36000 |
| Route | OBOKA5G OBOKA Z29 TORNU DCT WOODY DCT GALSO Q63 ERING L179 UGBET Q60 OKSAW DCT TIGWE DCT FELCA DCT FADZU DCT NICXI DCT OFSOX DCT SLANY DCT LUPOR DCT LONDU DCT MALOT/M081F380 NATF ELSIR/N0476F380 DCT DANOL DCT ENE PARCH4 |
| Aircraft | A339/H-SADE1E2E3GHIJ3J5M1P2RWXY/LB2D1 |
Departure
| Time | 2026-05-09 10:09 |
|---|---|
| Airport | Frankfurt Main Airport (EDDF) |
Arrival
| Time | 2026-05-09 18:00 |
|---|---|
| Airport | John F. Kennedy International Airport (KJFK) |
| Time | Latitude | Longitude | Altitude | Speed | Heading |
|---|---|---|---|---|---|
| 2026-05-09 09:07 | 50.04824 | 8.57619 | 369 ft | 0 kts | 204° |
| 2026-05-09 09:51 | 50.04841 | 8.57630 | 369 ft | 4 kts | 204° |
| 2026-05-09 09:52 | 50.04865 | 8.57648 | 369 ft | 3 kts | 198° |
| 2026-05-09 09:52 | 50.04877 | 8.57655 | 369 ft | 2 kts | 162° |
| 2026-05-09 09:52 | 50.04893 | 8.57649 | 372 ft | 1 kts | 130° |
| 2026-05-09 09:52 | 50.04889 | 8.57680 | 373 ft | 3 kts | 109° |
| 2026-05-09 09:53 | 50.04884 | 8.57700 | 366 ft | 2 kts | 110° |
| 2026-05-09 09:53 | 50.04880 | 8.57715 | 370 ft | 2 kts | 111° |
| 2026-05-09 09:53 | 50.04876 | 8.57731 | 371 ft | 2 kts | 112° |
| 2026-05-09 09:53 | 50.04875 | 8.57733 | 371 ft | 0 kts | 112° |
| 2026-05-09 09:54 | 50.04866 | 8.57767 | 370 ft | 3 kts | 113° |
| 2026-05-09 09:54 | 50.04861 | 8.57787 | 370 ft | 2 kts | 113° |
| 2026-05-09 09:55 | 50.04858 | 8.57797 | 368 ft | 0 kts | 112° |
| 2026-05-09 10:00 | 50.04856 | 8.57804 | 370 ft | 2 kts | 112° |
| 2026-05-09 10:00 | 50.04843 | 8.57851 | 369 ft | 7 kts | 113° |
| 2026-05-09 10:00 | 50.04798 | 8.57906 | 369 ft | 9 kts | 155° |
| 2026-05-09 10:01 | 50.04738 | 8.57944 | 370 ft | 10 kts | 159° |
| 2026-05-09 10:01 | 50.04668 | 8.57985 | 370 ft | 11 kts | 159° |
| 2026-05-09 10:01 | 50.04594 | 8.58026 | 371 ft | 11 kts | 164° |
| 2026-05-09 10:01 | 50.04533 | 8.57973 | 373 ft | 10 kts | 236° |
| 2026-05-09 10:02 | 50.04502 | 8.57857 | 371 ft | 13 kts | 248° |
| 2026-05-09 10:02 | 50.04467 | 8.57716 | 369 ft | 14 kts | 250° |
| 2026-05-09 10:02 | 50.04430 | 8.57560 | 369 ft | 17 kts | 250° |
| 2026-05-09 10:02 | 50.04388 | 8.57379 | 370 ft | 19 kts | 250° |
| 2026-05-09 10:03 | 50.04340 | 8.57174 | 369 ft | 21 kts | 250° |
| 2026-05-09 10:03 | 50.04291 | 8.56966 | 368 ft | 21 kts | 250° |
| 2026-05-09 10:03 | 50.04240 | 8.56756 | 371 ft | 21 kts | 249° |
| 2026-05-09 10:03 | 50.04189 | 8.56542 | 367 ft | 21 kts | 250° |
| 2026-05-09 10:04 | 50.04139 | 8.56329 | 371 ft | 21 kts | 250° |
| 2026-05-09 10:04 | 50.04089 | 8.56122 | 369 ft | 20 kts | 249° |
| 2026-05-09 10:04 | 50.04040 | 8.55915 | 369 ft | 20 kts | 250° |
| 2026-05-09 10:04 | 50.03990 | 8.55708 | 368 ft | 20 kts | 249° |
| 2026-05-09 10:05 | 50.03941 | 8.55505 | 367 ft | 20 kts | 250° |
| 2026-05-09 10:05 | 50.03893 | 8.55297 | 371 ft | 20 kts | 250° |
| 2026-05-09 10:05 | 50.03844 | 8.55096 | 367 ft | 20 kts | 249° |
| 2026-05-09 10:05 | 50.03796 | 8.54891 | 368 ft | 20 kts | 250° |
| 2026-05-09 10:06 | 50.03747 | 8.54688 | 370 ft | 20 kts | 249° |
| 2026-05-09 10:06 | 50.03708 | 8.54524 | 368 ft | 11 kts | 250° |
| 2026-05-09 10:06 | 50.03682 | 8.54415 | 370 ft | 11 kts | 250° |
| 2026-05-09 10:06 | 50.03641 | 8.54318 | 370 ft | 11 kts | 209° |
| 2026-05-09 10:07 | 50.03563 | 8.54338 | 366 ft | 13 kts | 162° |
| 2026-05-09 10:07 | 50.03491 | 8.54399 | 367 ft | 7 kts | 114° |
| 2026-05-09 10:07 | 50.03502 | 8.54462 | 363 ft | 0 kts | 69° |
| 2026-05-09 10:08 | 50.03503 | 8.54468 | 364 ft | 9 kts | 69° |
| 2026-05-09 10:08 | 50.03622 | 8.54957 | 365 ft | 87 kts | 69° |
| 2026-05-09 10:08 | 50.03899 | 8.56122 | 367 ft | 148 kts | 70° |
| 2026-05-09 10:08 | 50.04286 | 8.57793 | 681 ft | 171 kts | 70° |
| 2026-05-09 10:09 | 50.04686 | 8.59558 | 1475 ft | 173 kts | 70° |
| 2026-05-09 10:09 | 50.05089 | 8.61383 | 2190 ft | 185 kts | 71° |
| 2026-05-09 10:09 | 50.05525 | 8.63370 | 2612 ft | 203 kts | 71° |
| 2026-05-09 10:09 | 50.06009 | 8.65540 | 2985 ft | 220 kts | 71° |
| 2026-05-09 10:10 | 50.06535 | 8.67822 | 3575 ft | 225 kts | 71° |
| 2026-05-09 10:10 | 50.07113 | 8.70094 | 4084 ft | 233 kts | 62° |
| 2026-05-09 10:10 | 50.08228 | 8.71944 | 4607 ft | 239 kts | 32° |
| 2026-05-09 10:10 | 50.09751 | 8.73075 | 5025 ft | 250 kts | 22° |
| 2026-05-09 10:11 | 50.11425 | 8.74074 | 5294 ft | 263 kts | 20° |
| 2026-05-09 10:11 | 50.13152 | 8.75097 | 5802 ft | 267 kts | 20° |
| 2026-05-09 10:11 | 50.14902 | 8.76182 | 6151 ft | 280 kts | 21° |
| 2026-05-09 10:11 | 50.16703 | 8.77365 | 6765 ft | 282 kts | 22° |
| 2026-05-09 10:12 | 50.18505 | 8.78590 | 7289 ft | 283 kts | 22° |
| 2026-05-09 10:12 | 50.20321 | 8.79836 | 7842 ft | 286 kts | 22° |
| 2026-05-09 10:12 | 50.22164 | 8.81103 | 8404 ft | 289 kts | 22° |
| 2026-05-09 10:12 | 50.24031 | 8.82305 | 8949 ft | 291 kts | 15° |
| 2026-05-09 10:13 | 50.26009 | 8.82576 | 9554 ft | 291 kts | 351° |
| 2026-05-09 10:13 | 50.27912 | 8.81568 | 10118 ft | 290 kts | 327° |
| 2026-05-09 10:13 | 50.29388 | 8.79435 | 10625 ft | 292 kts | 302° |
| 2026-05-09 10:13 | 50.30210 | 8.76538 | 11127 ft | 293 kts | 283° |
| 2026-05-09 10:14 | 50.30640 | 8.73386 | 11639 ft | 298 kts | 279° |
| 2026-05-09 10:14 | 50.31061 | 8.70178 | 12149 ft | 303 kts | 281° |
| 2026-05-09 10:14 | 50.31592 | 8.66955 | 12663 ft | 307 kts | 284° |
| 2026-05-09 10:14 | 50.32212 | 8.63772 | 13184 ft | 311 kts | 287° |
| 2026-05-09 10:15 | 50.32904 | 8.60512 | 13461 ft | 324 kts | 287° |
| 2026-05-09 10:15 | 50.33652 | 8.57096 | 13616 ft | 339 kts | 288° |
| 2026-05-09 10:15 | 50.34435 | 8.53547 | 13908 ft | 349 kts | 288° |
| 2026-05-09 10:15 | 50.35228 | 8.49938 | 14391 ft | 351 kts | 288° |
| 2026-05-09 10:16 | 50.36021 | 8.46312 | 14877 ft | 353 kts | 288° |
| 2026-05-09 10:16 | 50.36818 | 8.42654 | 15367 ft | 355 kts | 288° |
| 2026-05-09 10:16 | 50.37518 | 8.38919 | 15811 ft | 358 kts | 279° |
| 2026-05-09 10:16 | 50.37642 | 8.35074 | 16291 ft | 359 kts | 265° |
| 2026-05-09 10:17 | 50.37135 | 8.31242 | 16764 ft | 361 kts | 251° |
| 2026-05-09 10:17 | 50.36341 | 8.27484 | 17193 ft | 364 kts | 252° |
| 2026-05-09 10:17 | 50.35563 | 8.23705 | 17682 ft | 366 kts | 252° |
| 2026-05-09 10:17 | 50.35050 | 8.21172 | 17986 ft | 368 kts | 252° |
| 2026-05-09 10:18 | 50.34281 | 8.17331 | 18441 ft | 370 kts | 252° |
| 2026-05-09 10:18 | 50.33508 | 8.13468 | 18832 ft | 373 kts | 252° |
| 2026-05-09 10:18 | 50.32732 | 8.09601 | 19240 ft | 376 kts | 252° |
| 2026-05-09 10:18 | 50.31944 | 8.05687 | 19578 ft | 379 kts | 252° |
| 2026-05-09 10:19 | 50.31149 | 8.01737 | 19830 ft | 380 kts | 252° |
| 2026-05-09 10:19 | 50.30357 | 7.97804 | 20069 ft | 382 kts | 252° |
| 2026-05-09 10:19 | 50.29704 | 7.93760 | 20137 ft | 382 kts | 263° |
| 2026-05-09 10:19 | 50.29747 | 7.89618 | 20135 ft | 382 kts | 279° |
| 2026-05-09 10:20 | 50.30528 | 7.85655 | 20141 ft | 382 kts | 294° |
| 2026-05-09 10:20 | 50.31670 | 7.81893 | 20134 ft | 382 kts | 295° |
| 2026-05-09 10:20 | 50.32796 | 7.78126 | 20130 ft | 382 kts | 294° |
| 2026-05-09 10:20 | 50.33893 | 7.74385 | 20130 ft | 382 kts | 294° |
| 2026-05-09 10:21 | 50.35013 | 7.70625 | 20113 ft | 382 kts | 298° |
| 2026-05-09 10:21 | 50.36587 | 7.67269 | 20119 ft | 383 kts | 314° |
| 2026-05-09 10:21 | 50.38703 | 7.64736 | 20137 ft | 385 kts | 330° |
| 2026-05-09 10:21 | 50.41151 | 7.63006 | 20116 ft | 386 kts | 336° |
| 2026-05-09 10:22 | 50.43617 | 7.61365 | 20121 ft | 385 kts | 336° |
| 2026-05-09 10:22 | 50.46083 | 7.59697 | 20138 ft | 385 kts | 335° |
| 2026-05-09 10:22 | 50.48547 | 7.58004 | 20143 ft | 385 kts | 335° |
| 2026-05-09 10:22 | 50.51010 | 7.56306 | 20243 ft | 388 kts | 335° |
| 2026-05-09 10:23 | 50.53460 | 7.54613 | 20736 ft | 388 kts | 335° |
| 2026-05-09 10:23 | 50.55920 | 7.52806 | 21165 ft | 390 kts | 330° |
| 2026-05-09 10:23 | 50.58234 | 7.50544 | 21603 ft | 392 kts | 325° |
| 2026-05-09 10:23 | 50.60498 | 7.48189 | 22023 ft | 395 kts | 326° |
| 2026-05-09 10:24 | 50.62808 | 7.45813 | 22443 ft | 397 kts | 326° |
| 2026-05-09 10:24 | 50.65133 | 7.43429 | 22886 ft | 400 kts | 326° |
| 2026-05-09 10:24 | 50.67479 | 7.41025 | 23303 ft | 402 kts | 326° |
| 2026-05-09 10:24 | 50.69812 | 7.38632 | 23732 ft | 405 kts | 326° |
| 2026-05-09 10:25 | 50.72170 | 7.36131 | 24099 ft | 407 kts | 322° |
| 2026-05-09 10:25 | 50.74194 | 7.33175 | 24470 ft | 408 kts | 311° |
| 2026-05-09 10:25 | 50.75868 | 7.29616 | 24815 ft | 410 kts | 301° |
| 2026-05-09 10:25 | 50.77191 | 7.25603 | 25184 ft | 411 kts | 296° |
| 2026-05-09 10:26 | 50.78483 | 7.21545 | 25543 ft | 414 kts | 296° |
| 2026-05-09 10:26 | 50.79797 | 7.17490 | 25913 ft | 416 kts | 297° |
| 2026-05-09 10:26 | 50.81122 | 7.13415 | 26275 ft | 418 kts | 297° |
| 2026-05-09 10:26 | 50.82441 | 7.09359 | 26619 ft | 420 kts | 297° |
| 2026-05-09 10:27 | 50.83782 | 7.05224 | 26989 ft | 422 kts | 297° |
| 2026-05-09 10:27 | 50.85126 | 7.01076 | 27320 ft | 424 kts | 296° |
| 2026-05-09 10:27 | 50.86473 | 6.96904 | 27681 ft | 426 kts | 296° |
| 2026-05-09 10:27 | 50.87829 | 6.92700 | 28029 ft | 428 kts | 296° |
| 2026-05-09 10:28 | 50.89189 | 6.88467 | 28375 ft | 430 kts | 296° |
| 2026-05-09 10:28 | 50.90533 | 6.84278 | 28685 ft | 433 kts | 296° |
| 2026-05-09 10:28 | 50.91905 | 6.80002 | 29000 ft | 435 kts | 296° |
| 2026-05-09 10:28 | 50.93278 | 6.75716 | 29317 ft | 437 kts | 296° |
| 2026-05-09 10:29 | 50.94656 | 6.71406 | 29641 ft | 439 kts | 296° |
| 2026-05-09 10:29 | 50.96042 | 6.67065 | 29960 ft | 441 kts | 296° |
| 2026-05-09 10:29 | 50.97427 | 6.62716 | 30264 ft | 443 kts | 296° |
| 2026-05-09 10:29 | 50.98820 | 6.58331 | 30544 ft | 445 kts | 296° |
| 2026-05-09 10:30 | 51.00220 | 6.53923 | 30832 ft | 447 kts | 296° |
| 2026-05-09 10:30 | 51.01603 | 6.49567 | 31119 ft | 448 kts | 296° |
| 2026-05-09 10:30 | 51.03004 | 6.45139 | 31406 ft | 450 kts | 296° |
| 2026-05-09 10:30 | 51.04417 | 6.40661 | 31695 ft | 452 kts | 296° |
| 2026-05-09 10:31 | 51.05828 | 6.36181 | 31976 ft | 454 kts | 295° |
| 2026-05-09 10:31 | 51.07242 | 6.31684 | 32263 ft | 455 kts | 295° |
| 2026-05-09 10:31 | 51.08661 | 6.27165 | 32532 ft | 457 kts | 295° |
| 2026-05-09 10:31 | 51.10088 | 6.22607 | 32744 ft | 459 kts | 295° |
| 2026-05-09 10:32 | 51.11512 | 6.18051 | 33017 ft | 459 kts | 295° |
| 2026-05-09 10:32 | 51.12911 | 6.13552 | 33283 ft | 459 kts | 294° |
| 2026-05-09 10:32 | 51.14126 | 6.08847 | 33552 ft | 457 kts | 288° |
| 2026-05-09 10:32 | 51.15012 | 6.03992 | 33824 ft | 456 kts | 282° |
| 2026-05-09 10:33 | 51.15781 | 5.99084 | 34113 ft | 455 kts | 283° |
| 2026-05-09 10:33 | 51.16572 | 5.94191 | 34311 ft | 456 kts | 283° |
| 2026-05-09 10:33 | 51.17367 | 5.89304 | 34501 ft | 456 kts | 283° |
| 2026-05-09 10:33 | 51.18164 | 5.84399 | 34694 ft | 456 kts | 283° |
| 2026-05-09 10:34 | 51.18953 | 5.79495 | 34868 ft | 457 kts | 283° |
| 2026-05-09 10:34 | 51.20502 | 5.69655 | 35179 ft | 457 kts | 283° |
| 2026-05-09 10:34 | 51.21274 | 5.64728 | 35379 ft | 457 kts | 283° |
| 2026-05-09 10:35 | 51.22034 | 5.59867 | 35572 ft | 456 kts | 283° |
| 2026-05-09 10:35 | 51.22803 | 5.54936 | 35755 ft | 456 kts | 283° |
| 2026-05-09 10:35 | 51.23570 | 5.50002 | 35910 ft | 457 kts | 283° |
| 2026-05-09 10:35 | 51.24334 | 5.45075 | 36075 ft | 457 kts | 283° |
| 2026-05-09 10:36 | 51.25853 | 5.35244 | 36126 ft | 459 kts | 283° |
| 2026-05-09 10:36 | 51.27374 | 5.25338 | 36125 ft | 458 kts | 282° |
| 2026-05-09 10:37 | 51.28884 | 5.15438 | 36123 ft | 459 kts | 282° |
| 2026-05-09 10:37 | 51.30390 | 5.05513 | 36123 ft | 459 kts | 282° |
| 2026-05-09 10:38 | 51.31881 | 4.95622 | 36125 ft | 459 kts | 282° |
| 2026-05-09 10:38 | 51.33368 | 4.85690 | 36128 ft | 459 kts | 282° |
| 2026-05-09 10:39 | 51.34847 | 4.75740 | 36129 ft | 459 kts | 282° |
| 2026-05-09 10:39 | 51.36320 | 4.65782 | 36126 ft | 459 kts | 282° |
| 2026-05-09 10:40 | 51.37778 | 4.55852 | 36130 ft | 460 kts | 282° |
| 2026-05-09 10:40 | 51.39234 | 4.45873 | 36135 ft | 460 kts | 282° |
| 2026-05-09 10:41 | 51.40860 | 4.35951 | 36136 ft | 461 kts | 288° |
| 2026-05-09 10:41 | 51.43395 | 4.26577 | 36133 ft | 462 kts | 293° |
| 2026-05-09 10:42 | 51.45641 | 4.18571 | 36133 ft | 462 kts | 292° |
| 2026-05-09 10:42 | 51.48263 | 4.09136 | 36126 ft | 461 kts | 292° |
| 2026-05-09 10:43 | 51.50871 | 3.99717 | 36106 ft | 462 kts | 292° |
| 2026-05-09 10:43 | 51.53477 | 3.90274 | 36112 ft | 462 kts | 292° |
| 2026-05-09 10:44 | 51.56064 | 3.80864 | 36129 ft | 462 kts | 292° |
| 2026-05-09 10:44 | 51.58658 | 3.71383 | 36144 ft | 462 kts | 292° |
| 2026-05-09 10:46 | 51.65087 | 3.47730 | 36127 ft | 462 kts | 292° |
| 2026-05-09 10:46 | 51.67633 | 3.38293 | 36129 ft | 461 kts | 292° |
| 2026-05-09 10:47 | 51.70193 | 3.28768 | 36127 ft | 461 kts | 292° |
| 2026-05-09 10:47 | 51.72251 | 3.19026 | 36125 ft | 458 kts | 279° |
| 2026-05-09 10:48 | 51.72566 | 3.08874 | 36128 ft | 456 kts | 263° |
| 2026-05-09 10:48 | 51.71673 | 2.98740 | 36124 ft | 455 kts | 261° |
| 2026-05-09 10:49 | 51.70800 | 2.88660 | 36127 ft | 456 kts | 261° |
| 2026-05-09 10:49 | 51.69913 | 2.78536 | 36132 ft | 456 kts | 261° |
| 2026-05-09 10:50 | 51.69013 | 2.68413 | 36134 ft | 456 kts | 261° |
| 2026-05-09 10:50 | 51.68109 | 2.58335 | 36129 ft | 456 kts | 261° |
| 2026-05-09 10:51 | 51.67197 | 2.48220 | 36128 ft | 456 kts | 261° |
| 2026-05-09 10:51 | 51.66270 | 2.38087 | 36127 ft | 456 kts | 261° |
| 2026-05-09 10:52 | 51.65336 | 2.27979 | 36128 ft | 456 kts | 261° |
| 2026-05-09 10:52 | 51.64393 | 2.17869 | 36127 ft | 456 kts | 261° |
| 2026-05-09 10:53 | 51.63448 | 2.07809 | 36128 ft | 456 kts | 261° |
| 2026-05-09 10:53 | 51.62514 | 1.97709 | 36127 ft | 456 kts | 261° |
| 2026-05-09 10:54 | 51.61574 | 1.87603 | 36124 ft | 456 kts | 261° |
| 2026-05-09 10:54 | 51.60629 | 1.77571 | 36128 ft | 456 kts | 261° |
| 2026-05-09 10:55 | 51.59668 | 1.67484 | 36132 ft | 456 kts | 261° |
| 2026-05-09 10:55 | 51.59235 | 1.57319 | 36132 ft | 455 kts | 271° |
| 2026-05-09 10:56 | 51.59674 | 1.47192 | 36134 ft | 456 kts | 274° |
| 2026-05-09 10:56 | 51.60116 | 1.37012 | 36136 ft | 455 kts | 274° |
| 2026-05-09 10:57 | 51.60539 | 1.26821 | 36138 ft | 455 kts | 274° |
| 2026-05-09 10:57 | 51.60950 | 1.16700 | 36135 ft | 455 kts | 274° |
| 2026-05-09 10:58 | 51.61356 | 1.06530 | 36137 ft | 455 kts | 274° |
| 2026-05-09 10:58 | 51.61751 | 0.96397 | 36134 ft | 455 kts | 274° |
| 2026-05-09 10:59 | 51.62075 | 0.87925 | 36140 ft | 454 kts | 274° |
| 2026-05-09 10:59 | 51.62455 | 0.77744 | 36136 ft | 454 kts | 274° |
| 2026-05-09 11:00 | 51.62821 | 0.67757 | 36143 ft | 454 kts | 274° |
| 2026-05-09 11:00 | 51.63184 | 0.57592 | 36141 ft | 453 kts | 274° |
| 2026-05-09 11:01 | 51.63534 | 0.47534 | 36139 ft | 452 kts | 274° |
| 2026-05-09 11:01 | 51.63878 | 0.37357 | 36136 ft | 451 kts | 274° |
| 2026-05-09 11:02 | 51.64211 | 0.27324 | 36136 ft | 451 kts | 274° |
| 2026-05-09 11:02 | 51.64450 | 0.17215 | 36133 ft | 450 kts | 270° |
| 2026-05-09 11:03 | 51.63772 | 0.07240 | 36132 ft | 452 kts | 261° |
| 2026-05-09 11:03 | 51.62676 | -0.02721 | 36133 ft | 451 kts | 262° |
| 2026-05-09 11:04 | 51.61974 | -0.12731 | 36171 ft | 447 kts | 271° |
| 2026-05-09 11:04 | 51.62349 | -0.22686 | 36180 ft | 445 kts | 277° |
| 2026-05-09 11:05 | 51.62979 | -0.32589 | 36177 ft | 445 kts | 277° |
| 2026-05-09 11:05 | 51.63573 | -0.42467 | 36125 ft | 445 kts | 277° |
| 2026-05-09 11:06 | 51.64160 | -0.52379 | 36123 ft | 444 kts | 277° |
| 2026-05-09 11:06 | 51.64741 | -0.62307 | 36119 ft | 444 kts | 276° |
| 2026-05-09 11:07 | 51.65309 | -0.72150 | 36115 ft | 444 kts | 276° |
| 2026-05-09 11:07 | 51.65874 | -0.82071 | 36102 ft | 444 kts | 276° |
| 2026-05-09 11:08 | 51.66431 | -0.92009 | 36099 ft | 444 kts | 276° |
| 2026-05-09 11:08 | 51.66978 | -1.01911 | 36104 ft | 444 kts | 276° |
| 2026-05-09 11:09 | 51.67513 | -1.11774 | 36101 ft | 443 kts | 275° |
| 2026-05-09 11:09 | 51.68042 | -1.21672 | 36102 ft | 443 kts | 275° |
| 2026-05-09 11:10 | 51.68564 | -1.31603 | 36124 ft | 443 kts | 275° |
| 2026-05-09 11:10 | 51.69074 | -1.41459 | 36125 ft | 443 kts | 275° |
| 2026-05-09 11:11 | 51.69575 | -1.51302 | 36128 ft | 442 kts | 275° |
| 2026-05-09 11:11 | 51.70070 | -1.61206 | 36128 ft | 442 kts | 275° |
| 2026-05-09 11:12 | 51.70567 | -1.71113 | 36136 ft | 442 kts | 275° |
| 2026-05-09 11:12 | 51.71281 | -1.80922 | 36136 ft | 442 kts | 277° |
| 2026-05-09 11:13 | 51.72033 | -1.90781 | 36135 ft | 442 kts | 276° |
| 2026-05-09 11:13 | 51.72740 | -2.00594 | 36134 ft | 442 kts | 276° |
| 2026-05-09 11:14 | 51.73430 | -2.10440 | 36127 ft | 441 kts | 276° |
| 2026-05-09 11:14 | 51.74113 | -2.20300 | 36128 ft | 441 kts | 276° |
| 2026-05-09 11:15 | 51.74783 | -2.30110 | 36130 ft | 441 kts | 275° |
| 2026-05-09 11:15 | 51.75450 | -2.39975 | 36127 ft | 442 kts | 275° |
| 2026-05-09 11:16 | 51.76105 | -2.49801 | 36125 ft | 441 kts | 275° |
| 2026-05-09 11:16 | 51.76756 | -2.59694 | 36156 ft | 442 kts | 275° |
| 2026-05-09 11:17 | 51.77396 | -2.69537 | 36169 ft | 442 kts | 275° |
| 2026-05-09 11:17 | 51.78031 | -2.79439 | 36181 ft | 442 kts | 275° |
| 2026-05-09 11:18 | 51.78656 | -2.89314 | 36181 ft | 442 kts | 274° |
| 2026-05-09 11:18 | 51.79275 | -2.99225 | 36184 ft | 443 kts | 274° |
| 2026-05-09 11:19 | 51.79882 | -3.09090 | 36179 ft | 443 kts | 274° |
| 2026-05-09 11:19 | 51.80482 | -3.18969 | 36165 ft | 443 kts | 274° |
| 2026-05-09 11:20 | 51.81078 | -3.28905 | 36149 ft | 443 kts | 274° |
| 2026-05-09 11:20 | 51.81660 | -3.38786 | 36135 ft | 444 kts | 274° |
| 2026-05-09 11:21 | 51.82237 | -3.48739 | 36115 ft | 444 kts | 274° |
| 2026-05-09 11:21 | 51.83131 | -3.58635 | 36118 ft | 446 kts | 280° |
| 2026-05-09 11:22 | 51.84427 | -3.68413 | 36115 ft | 446 kts | 279° |
| 2026-05-09 11:22 | 51.85698 | -3.78274 | 36115 ft | 446 kts | 279° |
| 2026-05-09 11:23 | 51.86956 | -3.88108 | 36117 ft | 447 kts | 279° |
| 2026-05-09 11:23 | 51.88204 | -3.97924 | 36120 ft | 447 kts | 279° |
| 2026-05-09 11:24 | 51.89451 | -4.07808 | 36115 ft | 447 kts | 279° |
| 2026-05-09 11:24 | 51.90691 | -4.17702 | 36122 ft | 448 kts | 279° |
| 2026-05-09 11:25 | 51.91920 | -4.27578 | 36124 ft | 448 kts | 279° |
| 2026-05-09 11:25 | 51.93137 | -4.37432 | 36124 ft | 448 kts | 278° |
| 2026-05-09 11:26 | 51.94357 | -4.47385 | 36127 ft | 449 kts | 278° |
| 2026-05-09 11:26 | 51.95560 | -4.57275 | 36134 ft | 449 kts | 278° |
| 2026-05-09 11:27 | 51.96764 | -4.67243 | 36134 ft | 449 kts | 278° |
| 2026-05-09 11:27 | 51.97958 | -4.77206 | 36142 ft | 450 kts | 278° |
| 2026-05-09 11:28 | 51.99146 | -4.87188 | 36140 ft | 450 kts | 278° |
| 2026-05-09 11:28 | 52.00326 | -4.97165 | 36149 ft | 457 kts | 277° |
| 2026-05-09 11:29 | 52.01528 | -5.07451 | 36148 ft | 469 kts | 277° |
| 2026-05-09 11:29 | 52.02763 | -5.17949 | 36145 ft | 475 kts | 279° |
| 2026-05-09 11:30 | 52.04698 | -5.28266 | 36153 ft | 478 kts | 285° |
| 2026-05-09 11:30 | 52.06767 | -5.38454 | 36156 ft | 477 kts | 285° |
| 2026-05-09 11:31 | 52.08827 | -5.48730 | 36163 ft | 477 kts | 284° |
| 2026-05-09 11:31 | 52.10866 | -5.58955 | 36163 ft | 477 kts | 284° |
| 2026-05-09 11:32 | 52.12911 | -5.69242 | 36171 ft | 477 kts | 284° |
| 2026-05-09 11:32 | 52.14947 | -5.79532 | 36172 ft | 476 kts | 284° |
| 2026-05-09 11:33 | 52.16538 | -5.89904 | 36177 ft | 472 kts | 276° |
| 2026-05-09 11:33 | 52.18332 | -6.05649 | 36177 ft | 472 kts | 278° |
| 2026-05-09 11:34 | 52.19577 | -6.16119 | 36181 ft | 471 kts | 278° |
| 2026-05-09 11:34 | 52.20785 | -6.26629 | 36178 ft | 471 kts | 277° |
| 2026-05-09 11:35 | 52.21962 | -6.37153 | 36185 ft | 470 kts | 277° |
| 2026-05-09 11:35 | 52.23116 | -6.47591 | 36185 ft | 470 kts | 277° |
| 2026-05-09 11:36 | 52.24270 | -6.58087 | 36184 ft | 470 kts | 277° |
| 2026-05-09 11:36 | 52.25420 | -6.68632 | 36185 ft | 470 kts | 277° |
| 2026-05-09 11:37 | 52.26550 | -6.79103 | 36184 ft | 470 kts | 277° |
| 2026-05-09 11:37 | 52.27681 | -6.89647 | 36185 ft | 469 kts | 277° |
| 2026-05-09 11:38 | 52.28793 | -7.00100 | 36188 ft | 469 kts | 277° |
| 2026-05-09 11:38 | 52.29904 | -7.10625 | 36186 ft | 469 kts | 277° |
| 2026-05-09 11:39 | 52.30997 | -7.21080 | 36191 ft | 469 kts | 277° |
| 2026-05-09 11:40 | 52.32623 | -7.36801 | 36196 ft | 468 kts | 277° |
| 2026-05-09 11:40 | 52.33524 | -7.45600 | 36197 ft | 467 kts | 277° |
| 2026-05-09 11:41 | 52.34583 | -7.56040 | 36209 ft | 467 kts | 277° |
| 2026-05-09 11:41 | 52.35639 | -7.66544 | 36214 ft | 466 kts | 277° |
| 2026-05-09 11:42 | 52.36679 | -7.76961 | 36213 ft | 465 kts | 277° |
| 2026-05-09 11:42 | 52.37712 | -7.87439 | 36217 ft | 465 kts | 276° |
| 2026-05-09 11:43 | 52.38728 | -7.97834 | 36216 ft | 464 kts | 276° |
| 2026-05-09 11:43 | 52.39741 | -8.08304 | 36219 ft | 464 kts | 276° |
| 2026-05-09 11:44 | 52.40742 | -8.18692 | 36222 ft | 463 kts | 276° |
| 2026-05-09 11:44 | 52.41736 | -8.29137 | 36221 ft | 463 kts | 276° |
| 2026-05-09 11:45 | 52.42713 | -8.39516 | 36227 ft | 462 kts | 276° |
| 2026-05-09 11:45 | 52.43685 | -8.49933 | 36230 ft | 462 kts | 276° |
| 2026-05-09 11:46 | 52.44649 | -8.60357 | 36232 ft | 461 kts | 276° |
| 2026-05-09 11:46 | 52.45598 | -8.70720 | 36233 ft | 461 kts | 276° |
| 2026-05-09 11:47 | 52.46538 | -8.81130 | 36237 ft | 461 kts | 276° |
| 2026-05-09 11:47 | 52.47465 | -8.91486 | 36239 ft | 461 kts | 276° |
| 2026-05-09 11:48 | 52.48391 | -9.01911 | 36243 ft | 460 kts | 276° |
| 2026-05-09 11:48 | 52.49300 | -9.12272 | 36244 ft | 460 kts | 276° |
| 2026-05-09 11:49 | 52.50204 | -9.22686 | 36247 ft | 459 kts | 276° |
| 2026-05-09 11:49 | 52.51098 | -9.33069 | 36250 ft | 459 kts | 276° |
| 2026-05-09 11:50 | 52.51980 | -9.43425 | 36257 ft | 459 kts | 276° |
| 2026-05-09 11:50 | 52.52858 | -9.53843 | 36256 ft | 459 kts | 276° |
| 2026-05-09 11:51 | 52.53722 | -9.64174 | 36263 ft | 459 kts | 276° |
| 2026-05-09 11:51 | 52.54657 | -9.74561 | 36261 ft | 459 kts | 281° |
| 2026-05-09 11:52 | 52.56203 | -9.84686 | 36259 ft | 459 kts | 283° |
| 2026-05-09 11:52 | 52.57796 | -9.94901 | 36263 ft | 459 kts | 283° |
| 2026-05-09 11:53 | 52.59283 | -10.05072 | 36270 ft | 459 kts | 282° |
| 2026-05-09 11:53 | 52.60743 | -10.15295 | 36270 ft | 459 kts | 282° |
| 2026-05-09 11:54 | 52.62200 | -10.25563 | 36273 ft | 460 kts | 282° |
| 2026-05-09 11:54 | 52.63648 | -10.35812 | 36272 ft | 460 kts | 282° |
| 2026-05-09 11:55 | 52.65080 | -10.46031 | 36280 ft | 460 kts | 282° |
| 2026-05-09 11:56 | 52.69355 | -10.76930 | 36293 ft | 461 kts | 282° |
| 2026-05-09 11:57 | 52.70757 | -10.87203 | 36299 ft | 461 kts | 282° |
| 2026-05-09 11:57 | 52.72150 | -10.97488 | 36301 ft | 461 kts | 282° |
| 2026-05-09 11:58 | 52.73542 | -11.07839 | 36306 ft | 461 kts | 282° |
| 2026-05-09 11:58 | 52.74925 | -11.18195 | 36312 ft | 461 kts | 282° |
| 2026-05-09 11:59 | 52.76288 | -11.28480 | 36319 ft | 461 kts | 282° |
| 2026-05-09 11:59 | 52.77653 | -11.38848 | 36326 ft | 461 kts | 282° |
| 2026-05-09 12:00 | 52.79000 | -11.49149 | 36325 ft | 460 kts | 282° |
| 2026-05-09 12:00 | 52.80346 | -11.59527 | 36325 ft | 460 kts | 283° |
| 2026-05-09 12:01 | 52.81672 | -11.69825 | 36331 ft | 460 kts | 283° |
| 2026-05-09 12:01 | 52.82996 | -11.80180 | 36334 ft | 460 kts | 283° |
| 2026-05-09 12:02 | 52.84310 | -11.90536 | 36340 ft | 460 kts | 283° |
| 2026-05-09 12:02 | 52.85619 | -12.00931 | 36335 ft | 460 kts | 283° |
| 2026-05-09 12:03 | 52.86907 | -12.11228 | 36335 ft | 460 kts | 283° |
| 2026-05-09 12:03 | 52.88199 | -12.21632 | 36339 ft | 461 kts | 283° |
| 2026-05-09 12:04 | 52.89473 | -12.32002 | 36346 ft | 462 kts | 283° |
| 2026-05-09 12:04 | 52.90749 | -12.42444 | 36348 ft | 462 kts | 283° |
| 2026-05-09 12:05 | 52.91799 | -12.52931 | 36353 ft | 465 kts | 277° |
| 2026-05-09 12:05 | 52.92236 | -12.63655 | 36353 ft | 466 kts | 276° |
| 2026-05-09 12:06 | 52.92703 | -12.74398 | 36355 ft | 467 kts | 276° |
| 2026-05-09 12:06 | 52.93155 | -12.85177 | 36365 ft | 466 kts | 276° |
| 2026-05-09 12:07 | 52.93581 | -12.95786 | 36369 ft | 463 kts | 276° |
| 2026-05-09 12:07 | 52.94008 | -13.06503 | 36370 ft | 465 kts | 276° |
| 2026-05-09 12:08 | 52.94421 | -13.17160 | 36376 ft | 465 kts | 276° |
| 2026-05-09 12:08 | 52.94828 | -13.27897 | 36379 ft | 466 kts | 276° |
| 2026-05-09 12:09 | 52.95222 | -13.38587 | 36381 ft | 467 kts | 276° |
| 2026-05-09 12:09 | 52.95605 | -13.49348 | 36382 ft | 467 kts | 276° |
| 2026-05-09 12:10 | 52.96354 | -13.70893 | 36390 ft | 469 kts | 276° |
| 2026-05-09 12:11 | 52.96712 | -13.81702 | 36397 ft | 469 kts | 276° |
| 2026-05-09 12:11 | 52.97059 | -13.92470 | 36401 ft | 469 kts | 276° |
| 2026-05-09 12:12 | 52.97399 | -14.03291 | 36405 ft | 469 kts | 276° |
| 2026-05-09 12:12 | 52.97730 | -14.14127 | 36405 ft | 469 kts | 276° |
| 2026-05-09 12:13 | 52.98047 | -14.24894 | 36410 ft | 469 kts | 276° |
| 2026-05-09 12:13 | 52.98360 | -14.35720 | 36412 ft | 469 kts | 276° |
| 2026-05-09 12:14 | 52.98660 | -14.46556 | 36416 ft | 469 kts | 276° |
| 2026-05-09 12:14 | 52.98947 | -14.57318 | 36419 ft | 469 kts | 276° |
| 2026-05-09 12:15 | 52.99229 | -14.68135 | 36419 ft | 468 kts | 276° |
| 2026-05-09 12:15 | 52.99500 | -14.78949 | 36421 ft | 468 kts | 276° |
| 2026-05-09 12:16 | 52.99761 | -14.89748 | 36423 ft | 468 kts | 276° |
| 2026-05-09 12:16 | 53.00015 | -15.00489 | 36423 ft | 468 kts | 275° |
| 2026-05-09 12:17 | 53.00230 | -15.11292 | 36429 ft | 468 kts | 275° |
| 2026-05-09 12:17 | 53.00434 | -15.22113 | 36423 ft | 468 kts | 275° |
| 2026-05-09 12:18 | 53.00641 | -15.32874 | 36427 ft | 468 kts | 275° |
| 2026-05-09 12:18 | 53.00838 | -15.43700 | 36428 ft | 468 kts | 275° |
| 2026-05-09 12:19 | 53.01021 | -15.54521 | 36427 ft | 468 kts | 275° |
| 2026-05-09 12:19 | 53.01192 | -15.65277 | 36433 ft | 469 kts | 275° |
| 2026-05-09 12:20 | 53.01355 | -15.76100 | 36434 ft | 469 kts | 275° |
| 2026-05-09 12:20 | 53.01508 | -15.86962 | 36429 ft | 469 kts | 275° |
| 2026-05-09 12:21 | 53.01651 | -15.97772 | 36440 ft | 470 kts | 275° |
| 2026-05-09 12:21 | 53.01785 | -16.08680 | 36433 ft | 471 kts | 275° |
| 2026-05-09 12:22 | 53.01909 | -16.19496 | 36446 ft | 471 kts | 275° |
| 2026-05-09 12:22 | 53.02023 | -16.30409 | 36441 ft | 472 kts | 275° |
| 2026-05-09 12:23 | 53.02128 | -16.41335 | 36450 ft | 473 kts | 275° |
| 2026-05-09 12:23 | 53.02222 | -16.52235 | 36444 ft | 474 kts | 275° |
| 2026-05-09 12:24 | 53.02307 | -16.63219 | 36442 ft | 475 kts | 275° |
| 2026-05-09 12:24 | 53.02381 | -16.74215 | 36456 ft | 476 kts | 275° |
| 2026-05-09 12:25 | 53.02446 | -16.85200 | 36456 ft | 477 kts | 275° |
| 2026-05-09 12:25 | 53.02501 | -16.96201 | 36456 ft | 478 kts | 275° |
| 2026-05-09 12:26 | 53.02539 | -17.05412 | 36463 ft | 479 kts | 275° |
| 2026-05-09 12:26 | 53.02575 | -17.16551 | 36464 ft | 481 kts | 276° |
| 2026-05-09 12:27 | 53.02601 | -17.27669 | 36469 ft | 482 kts | 276° |
| 2026-05-09 12:27 | 53.02617 | -17.38781 | 36471 ft | 483 kts | 276° |
| 2026-05-09 12:28 | 53.02622 | -17.49959 | 36474 ft | 484 kts | 276° |
| 2026-05-09 12:28 | 53.02617 | -17.61171 | 36482 ft | 485 kts | 276° |
| 2026-05-09 12:29 | 53.02601 | -17.72301 | 36483 ft | 485 kts | 276° |
| 2026-05-09 12:29 | 53.02574 | -17.83568 | 36491 ft | 486 kts | 276° |
| 2026-05-09 12:30 | 53.02537 | -17.94819 | 36490 ft | 487 kts | 276° |
| 2026-05-09 12:30 | 53.02462 | -18.11688 | 36495 ft | 488 kts | 276° |
| 2026-05-09 12:31 | 53.02363 | -18.28568 | 36499 ft | 488 kts | 276° |
| 2026-05-09 12:32 | 53.02283 | -18.39800 | 36500 ft | 489 kts | 276° |
| 2026-05-09 12:32 | 53.02192 | -18.51128 | 36502 ft | 489 kts | 276° |
| 2026-05-09 12:33 | 53.02091 | -18.62402 | 36503 ft | 489 kts | 276° |
| 2026-05-09 12:33 | 53.01979 | -18.73733 | 36501 ft | 490 kts | 276° |
| 2026-05-09 12:34 | 53.01857 | -18.84984 | 36510 ft | 490 kts | 276° |
| 2026-05-09 12:34 | 53.01724 | -18.96278 | 36509 ft | 490 kts | 276° |
| 2026-05-09 12:35 | 53.01579 | -19.07641 | 36513 ft | 491 kts | 276° |
| 2026-05-09 12:35 | 53.01423 | -19.18997 | 36515 ft | 491 kts | 276° |
| 2026-05-09 12:36 | 53.01257 | -19.30296 | 36516 ft | 491 kts | 276° |
| 2026-05-09 12:36 | 53.01081 | -19.41589 | 36518 ft | 492 kts | 276° |
| 2026-05-09 12:37 | 53.00893 | -19.52990 | 36518 ft | 492 kts | 276° |
| 2026-05-09 12:37 | 53.00694 | -19.64361 | 36522 ft | 492 kts | 276° |
| 2026-05-09 12:38 | 53.00484 | -19.75703 | 36524 ft | 493 kts | 276° |
| 2026-05-09 12:38 | 53.00266 | -19.87052 | 36526 ft | 493 kts | 276° |
| 2026-05-09 12:39 | 53.00042 | -19.98470 | 36529 ft | 493 kts | 276° |
| 2026-05-09 12:39 | 53.00169 | -20.09749 | 36531 ft | 485 kts | 283° |
| 2026-05-09 12:40 | 53.00760 | -20.20904 | 36529 ft | 485 kts | 284° |
| 2026-05-09 12:40 | 53.01274 | -20.32060 | 36535 ft | 486 kts | 283° |
| 2026-05-09 12:41 | 53.01725 | -20.43229 | 36546 ft | 487 kts | 283° |
| 2026-05-09 12:41 | 53.02160 | -20.54482 | 36542 ft | 487 kts | 283° |
| 2026-05-09 12:42 | 53.02579 | -20.65692 | 36546 ft | 488 kts | 283° |
| 2026-05-09 12:42 | 53.02987 | -20.76986 | 36546 ft | 488 kts | 283° |
| 2026-05-09 12:43 | 53.03380 | -20.88198 | 36554 ft | 488 kts | 283° |
| 2026-05-09 12:43 | 53.03766 | -20.99475 | 36557 ft | 489 kts | 283° |
| 2026-05-09 12:44 | 53.04142 | -21.10791 | 36557 ft | 489 kts | 282° |
| 2026-05-09 12:44 | 53.04505 | -21.22079 | 36556 ft | 489 kts | 282° |
| 2026-05-09 12:45 | 53.04856 | -21.33337 | 36560 ft | 489 kts | 282° |
| 2026-05-09 12:45 | 53.05198 | -21.44664 | 36564 ft | 490 kts | 282° |
| 2026-05-09 12:46 | 53.05528 | -21.55917 | 36569 ft | 490 kts | 282° |
| 2026-05-09 12:46 | 53.05851 | -21.67288 | 36567 ft | 490 kts | 282° |
| 2026-05-09 12:47 | 53.06161 | -21.78545 | 36572 ft | 490 kts | 282° |
| 2026-05-09 12:47 | 53.06462 | -21.89914 | 36583 ft | 490 kts | 282° |
| 2026-05-09 12:48 | 53.06750 | -22.01195 | 36581 ft | 491 kts | 282° |
| 2026-05-09 12:48 | 53.07030 | -22.12552 | 36576 ft | 491 kts | 282° |
| 2026-05-09 12:49 | 53.07298 | -22.23913 | 36577 ft | 491 kts | 282° |
| 2026-05-09 12:49 | 53.07556 | -22.35281 | 36577 ft | 491 kts | 282° |
| 2026-05-09 12:50 | 53.07803 | -22.46641 | 36582 ft | 491 kts | 282° |
| 2026-05-09 12:50 | 53.08039 | -22.57939 | 36586 ft | 492 kts | 282° |
| 2026-05-09 12:51 | 53.08265 | -22.69340 | 36587 ft | 492 kts | 282° |
| 2026-05-09 12:51 | 53.08480 | -22.80695 | 36590 ft | 492 kts | 282° |
| 2026-05-09 12:52 | 53.08684 | -22.92087 | 36593 ft | 492 kts | 281° |
| 2026-05-09 12:52 | 53.08878 | -23.03476 | 36595 ft | 492 kts | 281° |
| 2026-05-09 12:53 | 53.09059 | -23.14793 | 36599 ft | 492 kts | 281° |
| 2026-05-09 12:53 | 53.09232 | -23.26201 | 36595 ft | 492 kts | 281° |
| 2026-05-09 12:54 | 53.09392 | -23.37598 | 36604 ft | 492 kts | 281° |
| 2026-05-09 12:54 | 53.09543 | -23.49034 | 36599 ft | 492 kts | 281° |
| 2026-05-09 12:55 | 53.09681 | -23.60370 | 36608 ft | 492 kts | 281° |
| 2026-05-09 12:55 | 53.09809 | -23.71784 | 36602 ft | 493 kts | 281° |
| 2026-05-09 12:56 | 53.09927 | -23.83217 | 36604 ft | 493 kts | 281° |
| 2026-05-09 12:56 | 53.10033 | -23.94565 | 36609 ft | 493 kts | 280° |
| 2026-05-09 12:57 | 53.10128 | -24.05992 | 36609 ft | 493 kts | 280° |
| 2026-05-09 12:57 | 53.10213 | -24.17410 | 36601 ft | 493 kts | 280° |
| 2026-05-09 12:58 | 53.10286 | -24.28770 | 36613 ft | 493 kts | 280° |
| 2026-05-09 12:58 | 53.10349 | -24.40209 | 36608 ft | 493 kts | 280° |
| 2026-05-09 12:59 | 53.10401 | -24.51588 | 36609 ft | 493 kts | 280° |
| 2026-05-09 12:59 | 53.10442 | -24.63022 | 36614 ft | 494 kts | 279° |
| 2026-05-09 13:00 | 53.10472 | -24.74479 | 36617 ft | 494 kts | 279° |
| 2026-05-09 13:00 | 53.10491 | -24.85919 | 36616 ft | 494 kts | 279° |
| 2026-05-09 13:01 | 53.10499 | -24.97319 | 36624 ft | 494 kts | 279° |
| 2026-05-09 13:01 | 53.10496 | -25.08775 | 36619 ft | 495 kts | 279° |
| 2026-05-09 13:02 | 53.10482 | -25.20245 | 36631 ft | 495 kts | 279° |
| 2026-05-09 13:02 | 53.10457 | -25.31616 | 36616 ft | 495 kts | 279° |
| 2026-05-09 13:03 | 53.10421 | -25.43075 | 36638 ft | 494 kts | 279° |
| 2026-05-09 13:03 | 53.10374 | -25.54534 | 36637 ft | 495 kts | 279° |
| 2026-05-09 13:04 | 53.10316 | -25.65982 | 36630 ft | 495 kts | 278° |
| 2026-05-09 13:04 | 53.10248 | -25.77454 | 36634 ft | 495 kts | 278° |
| 2026-05-09 13:05 | 53.10168 | -25.88831 | 36636 ft | 494 kts | 278° |
| 2026-05-09 13:05 | 53.10077 | -26.00303 | 36637 ft | 494 kts | 278° |
| 2026-05-09 13:06 | 53.09976 | -26.11690 | 36639 ft | 494 kts | 278° |
| 2026-05-09 13:06 | 53.09863 | -26.23146 | 36637 ft | 493 kts | 278° |
| 2026-05-09 13:07 | 53.09740 | -26.34506 | 36635 ft | 493 kts | 278° |
| 2026-05-09 13:07 | 53.09606 | -26.45922 | 36639 ft | 493 kts | 278° |
| 2026-05-09 13:08 | 53.09462 | -26.57265 | 36638 ft | 492 kts | 277° |
| 2026-05-09 13:08 | 53.09306 | -26.68684 | 36642 ft | 492 kts | 277° |
| 2026-05-09 13:09 | 53.09141 | -26.80001 | 36641 ft | 492 kts | 277° |
| 2026-05-09 13:09 | 53.08964 | -26.91380 | 36641 ft | 492 kts | 277° |
| 2026-05-09 13:10 | 53.08776 | -27.02765 | 36644 ft | 491 kts | 277° |
| 2026-05-09 13:10 | 53.08578 | -27.14106 | 36642 ft | 491 kts | 277° |
| 2026-05-09 13:11 | 53.08404 | -27.23566 | 36646 ft | 491 kts | 277° |
| 2026-05-09 13:11 | 53.08185 | -27.34942 | 36648 ft | 491 kts | 277° |
| 2026-05-09 13:12 | 53.07958 | -27.46221 | 36649 ft | 490 kts | 276° |
| 2026-05-09 13:12 | 53.07717 | -27.57598 | 36653 ft | 490 kts | 276° |
| 2026-05-09 13:13 | 53.07469 | -27.68866 | 36652 ft | 490 kts | 276° |
| 2026-05-09 13:13 | 53.07208 | -27.80201 | 36649 ft | 489 kts | 276° |
| 2026-05-09 13:14 | 53.06938 | -27.91457 | 36657 ft | 489 kts | 276° |
| 2026-05-09 13:16 | 53.05750 | -28.36555 | 36653 ft | 488 kts | 275° |
| 2026-05-09 13:16 | 53.05425 | -28.47848 | 36654 ft | 487 kts | 275° |
| 2026-05-09 13:17 | 53.05093 | -28.59066 | 36653 ft | 487 kts | 275° |
| 2026-05-09 13:17 | 53.04748 | -28.70320 | 36657 ft | 487 kts | 275° |
| 2026-05-09 13:18 | 53.04395 | -28.81519 | 36653 ft | 487 kts | 275° |
| 2026-05-09 13:18 | 53.04031 | -28.92713 | 36658 ft | 487 kts | 274° |
| 2026-05-09 13:19 | 53.03655 | -29.03968 | 36660 ft | 486 kts | 274° |
| 2026-05-09 13:19 | 53.03269 | -29.15203 | 36665 ft | 486 kts | 274° |
| 2026-05-09 13:20 | 53.02875 | -29.26346 | 36664 ft | 486 kts | 274° |
| 2026-05-09 13:20 | 53.02466 | -29.37600 | 36657 ft | 486 kts | 274° |
| 2026-05-09 13:21 | 53.02049 | -29.48804 | 36658 ft | 486 kts | 274° |
| 2026-05-09 13:21 | 53.01624 | -29.59989 | 36662 ft | 485 kts | 273° |
| 2026-05-09 13:22 | 53.01196 | -29.71117 | 36661 ft | 485 kts | 273° |
| 2026-05-09 13:22 | 53.00760 | -29.82262 | 36659 ft | 485 kts | 273° |
| 2026-05-09 13:23 | 52.99358 | -30.10233 | 36739 ft | 488 kts | 271° |
| 2026-05-09 13:24 | 52.99037 | -30.15766 | 36963 ft | 486 kts | 271° |
| 2026-05-09 13:24 | 52.98728 | -30.21360 | 37216 ft | 485 kts | 271° |
| 2026-05-09 13:24 | 52.98419 | -30.26929 | 37474 ft | 484 kts | 271° |
| 2026-05-09 13:24 | 52.98102 | -30.32511 | 37726 ft | 484 kts | 271° |
| 2026-05-09 13:25 | 52.97785 | -30.38017 | 37932 ft | 484 kts | 271° |
| 2026-05-09 13:25 | 52.97460 | -30.43573 | 38150 ft | 484 kts | 271° |
| 2026-05-09 13:25 | 52.96799 | -30.54700 | 38505 ft | 485 kts | 270° |
| 2026-05-09 13:26 | 52.96462 | -30.60292 | 38650 ft | 486 kts | 270° |
| 2026-05-09 13:26 | 52.95779 | -30.71368 | 38655 ft | 484 kts | 270° |
| 2026-05-09 13:27 | 52.95081 | -30.82480 | 38657 ft | 484 kts | 270° |
| 2026-05-09 13:27 | 52.94378 | -30.93527 | 38658 ft | 483 kts | 270° |
| 2026-05-09 13:28 | 52.93661 | -31.04613 | 38652 ft | 483 kts | 270° |
| 2026-05-09 13:28 | 52.92931 | -31.15723 | 38655 ft | 483 kts | 270° |
| 2026-05-09 13:29 | 52.92197 | -31.26751 | 38655 ft | 483 kts | 269° |
| 2026-05-09 13:29 | 52.91455 | -31.37752 | 38653 ft | 482 kts | 269° |
| 2026-05-09 13:30 | 52.90696 | -31.48824 | 38665 ft | 482 kts | 269° |
| 2026-05-09 13:30 | 52.89929 | -31.59872 | 38662 ft | 482 kts | 269° |
| 2026-05-09 13:31 | 52.89156 | -31.70856 | 38651 ft | 482 kts | 269° |
| 2026-05-09 13:31 | 52.88368 | -31.81899 | 38643 ft | 482 kts | 268° |
| 2026-05-09 13:32 | 52.87574 | -31.92890 | 38641 ft | 481 kts | 268° |
| 2026-05-09 13:32 | 52.86359 | -32.09426 | 38642 ft | 481 kts | 268° |
| 2026-05-09 13:33 | 52.85544 | -32.20341 | 38639 ft | 481 kts | 268° |
| 2026-05-09 13:33 | 52.84712 | -32.31342 | 38642 ft | 480 kts | 268° |
| 2026-05-09 13:34 | 52.83873 | -32.42308 | 38640 ft | 480 kts | 268° |
| 2026-05-09 13:34 | 52.83023 | -32.53276 | 38636 ft | 480 kts | 267° |
| 2026-05-09 13:35 | 52.82167 | -32.64185 | 38638 ft | 480 kts | 267° |
| 2026-05-09 13:35 | 52.81301 | -32.75078 | 38635 ft | 479 kts | 267° |
| 2026-05-09 13:36 | 52.80425 | -32.85981 | 38635 ft | 479 kts | 267° |
| 2026-05-09 13:36 | 52.79537 | -32.96909 | 38629 ft | 479 kts | 266° |
| 2026-05-09 13:37 | 52.78637 | -33.07852 | 38631 ft | 479 kts | 266° |
| 2026-05-09 13:37 | 52.77734 | -33.18701 | 38628 ft | 478 kts | 266° |
| 2026-05-09 13:38 | 52.76819 | -33.29573 | 38635 ft | 478 kts | 266° |
| 2026-05-09 13:38 | 52.75898 | -33.40395 | 38628 ft | 478 kts | 266° |
| 2026-05-09 13:39 | 52.74964 | -33.51240 | 38637 ft | 477 kts | 266° |
| 2026-05-09 13:39 | 52.74020 | -33.62100 | 38639 ft | 477 kts | 265° |
| 2026-05-09 13:40 | 52.73067 | -33.72929 | 38629 ft | 476 kts | 265° |
| 2026-05-09 13:40 | 52.72110 | -33.83698 | 38622 ft | 476 kts | 265° |
| 2026-05-09 13:41 | 52.71138 | -33.94513 | 38620 ft | 475 kts | 265° |
| 2026-05-09 13:41 | 52.70157 | -34.05315 | 38614 ft | 475 kts | 265° |
| 2026-05-09 13:42 | 52.69175 | -34.16025 | 38610 ft | 475 kts | 265° |
| 2026-05-09 13:42 | 52.68176 | -34.26798 | 38611 ft | 474 kts | 265° |
| 2026-05-09 13:43 | 52.67173 | -34.37511 | 38605 ft | 474 kts | 264° |
| 2026-05-09 13:43 | 52.66158 | -34.48245 | 38602 ft | 473 kts | 264° |
| 2026-05-09 13:44 | 52.65137 | -34.58928 | 38600 ft | 473 kts | 264° |
| 2026-05-09 13:44 | 52.64104 | -34.69641 | 38598 ft | 472 kts | 264° |
| 2026-05-09 13:45 | 52.63067 | -34.80277 | 38603 ft | 472 kts | 264° |
| 2026-05-09 13:45 | 52.62017 | -34.90955 | 38587 ft | 471 kts | 264° |
| 2026-05-09 13:46 | 52.60966 | -35.01544 | 38589 ft | 471 kts | 263° |
| 2026-05-09 13:46 | 52.59897 | -35.12203 | 38592 ft | 470 kts | 263° |
| 2026-05-09 13:47 | 52.58824 | -35.22803 | 38588 ft | 469 kts | 263° |
| 2026-05-09 13:47 | 52.57750 | -35.33322 | 38583 ft | 468 kts | 263° |
| 2026-05-09 13:48 | 52.56662 | -35.43879 | 38578 ft | 467 kts | 263° |
| 2026-05-09 13:48 | 52.55574 | -35.54338 | 38575 ft | 466 kts | 263° |
| 2026-05-09 13:49 | 52.54471 | -35.64853 | 38570 ft | 465 kts | 262° |
| 2026-05-09 13:49 | 52.53368 | -35.75260 | 38569 ft | 464 kts | 262° |
| 2026-05-09 13:50 | 52.52252 | -35.85712 | 38567 ft | 463 kts | 262° |
| 2026-05-09 13:50 | 52.51129 | -35.96128 | 38564 ft | 462 kts | 262° |
| 2026-05-09 13:51 | 52.50007 | -36.06459 | 38563 ft | 461 kts | 262° |
| 2026-05-09 13:51 | 52.48869 | -36.16834 | 38555 ft | 461 kts | 262° |
| 2026-05-09 13:52 | 52.47724 | -36.27187 | 38548 ft | 460 kts | 262° |
| 2026-05-09 13:52 | 52.46581 | -36.37443 | 38542 ft | 459 kts | 262° |
| 2026-05-09 13:53 | 52.45420 | -36.47738 | 38543 ft | 458 kts | 262° |
| 2026-05-09 13:53 | 52.44260 | -36.58011 | 38537 ft | 457 kts | 261° |
| 2026-05-09 13:54 | 52.43090 | -36.68259 | 38538 ft | 456 kts | 261° |
| 2026-05-09 13:54 | 52.41918 | -36.78439 | 38529 ft | 456 kts | 261° |
| 2026-05-09 13:55 | 52.40739 | -36.88599 | 38528 ft | 455 kts | 261° |
| 2026-05-09 13:55 | 52.39543 | -36.98807 | 38526 ft | 454 kts | 260° |
| 2026-05-09 13:56 | 52.38350 | -37.08912 | 38522 ft | 454 kts | 260° |
| 2026-05-09 13:56 | 52.37145 | -37.19065 | 38515 ft | 453 kts | 260° |
| 2026-05-09 13:57 | 52.36137 | -37.27485 | 38513 ft | 453 kts | 260° |
| 2026-05-09 13:57 | 52.34917 | -37.37605 | 38507 ft | 452 kts | 259° |
| 2026-05-09 13:58 | 52.33695 | -37.47687 | 38501 ft | 452 kts | 259° |
| 2026-05-09 13:58 | 52.32469 | -37.57709 | 38501 ft | 451 kts | 259° |
| 2026-05-09 13:59 | 52.31227 | -37.67777 | 38494 ft | 451 kts | 259° |
| 2026-05-09 13:59 | 52.29982 | -37.77790 | 38497 ft | 450 kts | 258° |
| 2026-05-09 14:00 | 52.28938 | -37.86143 | 38489 ft | 450 kts | 258° |
| 2026-05-09 14:00 | 52.27470 | -37.97802 | 38482 ft | 450 kts | 258° |
| 2026-05-09 14:01 | 52.26206 | -38.07762 | 38481 ft | 449 kts | 258° |
| 2026-05-09 14:01 | 52.24927 | -38.17763 | 38476 ft | 449 kts | 258° |
| 2026-05-09 14:02 | 52.23639 | -38.27761 | 38472 ft | 448 kts | 257° |
| 2026-05-09 14:02 | 52.22358 | -38.37640 | 38463 ft | 448 kts | 257° |
| 2026-05-09 14:03 | 52.21059 | -38.47587 | 38465 ft | 447 kts | 257° |
| 2026-05-09 14:03 | 52.19755 | -38.57502 | 38457 ft | 447 kts | 257° |
| 2026-05-09 14:04 | 52.18451 | -38.67336 | 38458 ft | 446 kts | 257° |
| 2026-05-09 14:04 | 52.17131 | -38.77243 | 38447 ft | 446 kts | 256° |
| 2026-05-09 14:05 | 52.15808 | -38.87108 | 38438 ft | 445 kts | 256° |
| 2026-05-09 14:05 | 52.14484 | -38.96902 | 38436 ft | 445 kts | 256° |
| 2026-05-09 14:06 | 52.13144 | -39.06755 | 38432 ft | 444 kts | 256° |
| 2026-05-09 14:06 | 52.11808 | -39.16515 | 38427 ft | 443 kts | 256° |
| 2026-05-09 14:07 | 52.10452 | -39.26333 | 38416 ft | 443 kts | 255° |
| 2026-05-09 14:07 | 52.09102 | -39.36056 | 38419 ft | 442 kts | 255° |
| 2026-05-09 14:08 | 52.07736 | -39.45816 | 38406 ft | 442 kts | 255° |
| 2026-05-09 14:08 | 52.06365 | -39.55563 | 38402 ft | 442 kts | 255° |
| 2026-05-09 14:09 | 52.05003 | -39.65230 | 38397 ft | 441 kts | 255° |
| 2026-05-09 14:09 | 52.03626 | -39.74956 | 38396 ft | 441 kts | 255° |
| 2026-05-09 14:10 | 52.01544 | -39.89539 | 38390 ft | 441 kts | 255° |
| 2026-05-09 14:11 | 52.00142 | -39.99184 | 38382 ft | 440 kts | 254° |
| 2026-05-09 14:11 | 51.98611 | -40.08788 | 38379 ft | 440 kts | 253° |
| 2026-05-09 14:12 | 51.97162 | -40.18446 | 38374 ft | 440 kts | 254° |
| 2026-05-09 14:12 | 51.95729 | -40.28034 | 38364 ft | 439 kts | 254° |
| 2026-05-09 14:13 | 51.94266 | -40.37667 | 38359 ft | 439 kts | 253° |
| 2026-05-09 14:15 | 51.88338 | -40.75939 | 38341 ft | 438 kts | 253° |
| 2026-05-09 14:15 | 51.86829 | -40.85505 | 38337 ft | 437 kts | 253° |
| 2026-05-09 14:16 | 51.85319 | -40.95008 | 38328 ft | 437 kts | 253° |
| 2026-05-09 14:16 | 51.83795 | -41.04553 | 38316 ft | 437 kts | 253° |
| 2026-05-09 14:17 | 51.82268 | -41.14075 | 38319 ft | 437 kts | 252° |
| 2026-05-09 14:17 | 51.80743 | -41.23532 | 38306 ft | 437 kts | 252° |
| 2026-05-09 14:18 | 51.79199 | -41.33038 | 38301 ft | 436 kts | 252° |
| 2026-05-09 14:18 | 51.77662 | -41.42467 | 38292 ft | 436 kts | 252° |
| 2026-05-09 14:19 | 51.76104 | -41.51953 | 38299 ft | 435 kts | 252° |
| 2026-05-09 14:19 | 51.74550 | -41.61361 | 38283 ft | 435 kts | 252° |
| 2026-05-09 14:20 | 51.72985 | -41.70794 | 38278 ft | 435 kts | 252° |
| 2026-05-09 14:20 | 51.71418 | -41.80180 | 38270 ft | 434 kts | 251° |
| 2026-05-09 14:21 | 51.69046 | -41.94296 | 38259 ft | 434 kts | 251° |
| 2026-05-09 14:21 | 51.67467 | -42.03630 | 38250 ft | 434 kts | 251° |
| 2026-05-09 14:22 | 51.65870 | -42.13018 | 38233 ft | 434 kts | 251° |
| 2026-05-09 14:22 | 51.64275 | -42.22347 | 38228 ft | 434 kts | 251° |
| 2026-05-09 14:23 | 51.62663 | -42.31724 | 38228 ft | 434 kts | 251° |
| 2026-05-09 14:23 | 51.61043 | -42.41095 | 38218 ft | 434 kts | 250° |
| 2026-05-09 14:24 | 51.59427 | -42.50394 | 38214 ft | 434 kts | 250° |
| 2026-05-09 14:24 | 51.57789 | -42.59769 | 38209 ft | 435 kts | 250° |
| 2026-05-09 14:25 | 51.56147 | -42.69117 | 38200 ft | 435 kts | 250° |
| 2026-05-09 14:25 | 51.54493 | -42.78491 | 38199 ft | 436 kts | 250° |
| 2026-05-09 14:26 | 51.52838 | -42.87815 | 38199 ft | 436 kts | 250° |
| 2026-05-09 14:26 | 51.51167 | -42.97184 | 38194 ft | 437 kts | 250° |
| 2026-05-09 14:27 | 51.49487 | -43.06554 | 38186 ft | 437 kts | 250° |
| 2026-05-09 14:27 | 51.47797 | -43.15933 | 38181 ft | 437 kts | 249° |
| 2026-05-09 14:28 | 51.46097 | -43.25319 | 38174 ft | 437 kts | 249° |
| 2026-05-09 14:28 | 51.44402 | -43.34626 | 38168 ft | 437 kts | 249° |
| 2026-05-09 14:29 | 51.42681 | -43.44028 | 38160 ft | 437 kts | 249° |
| 2026-05-09 14:29 | 51.40973 | -43.53314 | 38157 ft | 437 kts | 249° |
| 2026-05-09 14:30 | 51.39244 | -43.62668 | 38154 ft | 436 kts | 249° |
| 2026-05-09 14:30 | 51.37523 | -43.71929 | 38144 ft | 436 kts | 248° |
| 2026-05-09 14:31 | 51.35786 | -43.81231 | 38143 ft | 435 kts | 248° |
| 2026-05-09 14:31 | 51.34047 | -43.90500 | 38129 ft | 434 kts | 248° |
| 2026-05-09 14:32 | 51.32312 | -43.99695 | 38125 ft | 433 kts | 248° |
| 2026-05-09 14:32 | 51.30561 | -44.08937 | 38119 ft | 433 kts | 248° |
| 2026-05-09 14:33 | 51.28815 | -44.18104 | 38098 ft | 432 kts | 247° |
| 2026-05-09 14:33 | 51.27059 | -44.27278 | 38103 ft | 431 kts | 247° |
| 2026-05-09 14:34 | 51.25300 | -44.36426 | 38085 ft | 430 kts | 247° |
| 2026-05-09 14:34 | 51.23538 | -44.45540 | 38088 ft | 429 kts | 247° |
| 2026-05-09 14:35 | 51.21774 | -44.54617 | 38091 ft | 431 kts | 246° |
| 2026-05-09 14:35 | 51.19991 | -44.63757 | 38081 ft | 431 kts | 246° |
| 2026-05-09 14:36 | 51.18212 | -44.72839 | 38083 ft | 430 kts | 246° |
| 2026-05-09 14:36 | 51.16417 | -44.81957 | 38073 ft | 429 kts | 246° |
| 2026-05-09 14:37 | 51.14631 | -44.90982 | 38056 ft | 428 kts | 246° |
| 2026-05-09 14:37 | 51.12846 | -44.99958 | 38046 ft | 427 kts | 246° |
| 2026-05-09 14:38 | 51.11045 | -45.08973 | 38040 ft | 427 kts | 246° |
| 2026-05-09 14:38 | 51.09235 | -45.17993 | 38052 ft | 427 kts | 246° |
| 2026-05-09 14:39 | 51.07428 | -45.26956 | 38046 ft | 427 kts | 246° |
| 2026-05-09 14:39 | 51.05605 | -45.35963 | 38034 ft | 426 kts | 245° |
| 2026-05-09 14:40 | 51.03781 | -45.44934 | 38025 ft | 426 kts | 245° |
| 2026-05-09 14:40 | 51.01961 | -45.53834 | 38014 ft | 425 kts | 245° |
| 2026-05-09 14:41 | 51.00125 | -45.62777 | 38009 ft | 425 kts | 245° |
| 2026-05-09 14:41 | 50.98293 | -45.71662 | 38001 ft | 425 kts | 245° |
| 2026-05-09 14:42 | 50.96444 | -45.80588 | 38000 ft | 424 kts | 245° |
| 2026-05-09 14:42 | 50.94604 | -45.89432 | 37994 ft | 424 kts | 245° |
| 2026-05-09 14:43 | 50.92745 | -45.98329 | 37988 ft | 423 kts | 245° |
| 2026-05-09 14:43 | 50.90898 | -46.07131 | 37985 ft | 423 kts | 245° |
| 2026-05-09 14:44 | 50.89030 | -46.15992 | 37984 ft | 422 kts | 244° |
| 2026-05-09 14:44 | 50.87480 | -46.23315 | 37978 ft | 421 kts | 244° |
| 2026-05-09 14:45 | 50.85306 | -46.33544 | 37977 ft | 420 kts | 244° |
| 2026-05-09 14:45 | 50.83753 | -46.40820 | 37970 ft | 419 kts | 244° |
| 2026-05-09 14:46 | 50.81887 | -46.49529 | 37979 ft | 417 kts | 244° |
| 2026-05-09 14:46 | 50.80017 | -46.58217 | 37963 ft | 416 kts | 244° |
| 2026-05-09 14:47 | 50.78161 | -46.66803 | 37957 ft | 414 kts | 243° |
| 2026-05-09 14:47 | 50.76295 | -46.75399 | 37954 ft | 412 kts | 243° |
| 2026-05-09 14:48 | 50.74429 | -46.83958 | 37943 ft | 411 kts | 243° |
| 2026-05-09 14:48 | 50.72562 | -46.92490 | 37941 ft | 409 kts | 243° |
| 2026-05-09 14:49 | 50.70707 | -47.00931 | 37926 ft | 408 kts | 242° |
| 2026-05-09 14:49 | 50.68844 | -47.09373 | 37921 ft | 406 kts | 242° |
| 2026-05-09 14:50 | 50.66990 | -47.17734 | 37921 ft | 406 kts | 242° |
| 2026-05-09 14:50 | 50.65114 | -47.26165 | 37914 ft | 407 kts | 242° |
| 2026-05-09 14:51 | 50.63236 | -47.34577 | 37913 ft | 406 kts | 242° |
| 2026-05-09 14:51 | 50.61372 | -47.42892 | 37901 ft | 405 kts | 242° |
| 2026-05-09 14:52 | 50.59490 | -47.51251 | 37891 ft | 404 kts | 241° |
| 2026-05-09 14:52 | 50.57602 | -47.59601 | 37886 ft | 404 kts | 241° |
| 2026-05-09 14:53 | 50.55718 | -47.67904 | 37882 ft | 404 kts | 241° |
| 2026-05-09 14:53 | 50.53819 | -47.76237 | 37883 ft | 404 kts | 241° |
| 2026-05-09 14:54 | 50.51922 | -47.84529 | 37886 ft | 405 kts | 240° |
| 2026-05-09 14:54 | 50.50011 | -47.92853 | 37882 ft | 405 kts | 240° |
| 2026-05-09 14:55 | 50.48096 | -48.01165 | 37881 ft | 404 kts | 240° |
| 2026-05-09 14:55 | 50.46181 | -48.09445 | 37877 ft | 403 kts | 240° |
| 2026-05-09 14:56 | 50.44265 | -48.17691 | 37889 ft | 404 kts | 239° |
| 2026-05-09 14:56 | 50.42337 | -48.25953 | 37867 ft | 402 kts | 239° |
| 2026-05-09 14:57 | 50.40417 | -48.34156 | 37857 ft | 402 kts | 239° |
| 2026-05-09 14:57 | 50.38480 | -48.42395 | 37848 ft | 402 kts | 239° |
| 2026-05-09 14:58 | 50.36550 | -48.50576 | 37848 ft | 402 kts | 239° |
| 2026-05-09 14:58 | 50.34604 | -48.58792 | 37844 ft | 402 kts | 239° |
| 2026-05-09 14:59 | 50.32651 | -48.67007 | 37847 ft | 403 kts | 238° |
| 2026-05-09 14:59 | 50.30701 | -48.75178 | 37836 ft | 404 kts | 238° |
| 2026-05-09 15:00 | 50.28725 | -48.83429 | 37839 ft | 404 kts | 238° |
| 2026-05-09 15:00 | 50.26746 | -48.91662 | 37843 ft | 404 kts | 238° |
| 2026-05-09 15:01 | 50.23773 | -49.03972 | 37841 ft | 405 kts | 238° |
| 2026-05-09 15:02 | 50.21767 | -49.12235 | 37844 ft | 405 kts | 238° |
| 2026-05-09 15:02 | 50.19768 | -49.20445 | 37839 ft | 406 kts | 238° |
| 2026-05-09 15:03 | 50.17752 | -49.28690 | 37841 ft | 406 kts | 238° |
| 2026-05-09 15:03 | 50.15737 | -49.36902 | 37844 ft | 406 kts | 238° |
| 2026-05-09 15:04 | 50.13703 | -49.45157 | 37847 ft | 407 kts | 238° |
| 2026-05-09 15:06 | 50.05517 | -49.78140 | 37848 ft | 410 kts | 237° |
| 2026-05-09 15:06 | 50.03461 | -49.86362 | 37847 ft | 410 kts | 237° |
| 2026-05-09 15:07 | 50.01378 | -49.94659 | 37847 ft | 411 kts | 237° |
| 2026-05-09 15:07 | 49.99268 | -50.02948 | 37844 ft | 411 kts | 236° |
| 2026-05-09 15:08 | 49.97228 | -50.11310 | 37847 ft | 415 kts | 239° |
| 2026-05-09 15:08 | 49.94250 | -50.23927 | 37848 ft | 416 kts | 238° |
| 2026-05-09 15:10 | 49.86042 | -50.57668 | 37853 ft | 421 kts | 238° |
| 2026-05-09 15:11 | 49.83956 | -50.66156 | 37865 ft | 421 kts | 238° |
| 2026-05-09 15:11 | 49.81857 | -50.74669 | 37878 ft | 422 kts | 239° |
| 2026-05-09 15:12 | 49.79762 | -50.83132 | 37872 ft | 422 kts | 239° |
| 2026-05-09 15:12 | 49.77651 | -50.91626 | 37876 ft | 422 kts | 239° |
| 2026-05-09 15:13 | 49.75552 | -51.00035 | 37886 ft | 421 kts | 239° |
| 2026-05-09 15:13 | 49.73434 | -51.08490 | 37888 ft | 421 kts | 239° |
| 2026-05-09 15:14 | 49.71306 | -51.16956 | 37890 ft | 420 kts | 239° |
| 2026-05-09 15:14 | 49.69197 | -51.25313 | 37893 ft | 420 kts | 239° |
| 2026-05-09 15:15 | 49.67422 | -51.32323 | 37893 ft | 419 kts | 239° |
| 2026-05-09 15:15 | 49.64945 | -51.42069 | 37895 ft | 419 kts | 239° |
| 2026-05-09 15:16 | 49.62808 | -51.50442 | 37882 ft | 419 kts | 239° |
| 2026-05-09 15:16 | 49.60665 | -51.58810 | 37888 ft | 418 kts | 239° |
| 2026-05-09 15:17 | 49.58517 | -51.67165 | 37893 ft | 418 kts | 239° |
| 2026-05-09 15:17 | 49.56357 | -51.75523 | 37896 ft | 418 kts | 239° |
| 2026-05-09 15:18 | 49.54208 | -51.83817 | 37896 ft | 419 kts | 239° |
| 2026-05-09 15:18 | 49.52035 | -51.92181 | 37903 ft | 419 kts | 239° |
| 2026-05-09 15:19 | 49.49932 | -52.00543 | 37911 ft | 425 kts | 243° |
| 2026-05-09 15:19 | 49.48450 | -52.09476 | 37913 ft | 430 kts | 246° |
| 2026-05-09 15:20 | 49.46301 | -52.22891 | 37884 ft | 432 kts | 247° |
| 2026-05-09 15:21 | 49.44864 | -52.31875 | 37888 ft | 433 kts | 247° |
| 2026-05-09 15:21 | 49.43424 | -52.40844 | 37899 ft | 435 kts | 247° |
| 2026-05-09 15:22 | 49.41960 | -52.49907 | 37903 ft | 436 kts | 247° |
| 2026-05-09 15:22 | 49.40500 | -52.58902 | 37900 ft | 437 kts | 247° |
| 2026-05-09 15:23 | 49.39020 | -52.67970 | 37917 ft | 438 kts | 247° |
| 2026-05-09 15:23 | 49.37523 | -52.77081 | 37965 ft | 442 kts | 247° |
| 2026-05-09 15:24 | 49.36017 | -52.86206 | 37952 ft | 443 kts | 247° |
| 2026-05-09 15:24 | 49.34501 | -52.95338 | 37955 ft | 444 kts | 247° |
| 2026-05-09 15:25 | 49.32963 | -53.04521 | 37957 ft | 444 kts | 247° |
| 2026-05-09 15:25 | 49.31412 | -53.13726 | 37960 ft | 445 kts | 247° |
| 2026-05-09 15:26 | 49.29081 | -53.27467 | 37970 ft | 445 kts | 247° |
| 2026-05-09 15:26 | 49.27519 | -53.36610 | 37963 ft | 446 kts | 247° |
| 2026-05-09 15:27 | 49.25938 | -53.45823 | 37958 ft | 446 kts | 247° |
| 2026-05-09 15:27 | 49.24616 | -53.53486 | 37963 ft | 447 kts | 247° |
| 2026-05-09 15:28 | 49.22760 | -53.64189 | 37953 ft | 447 kts | 247° |
| 2026-05-09 15:28 | 49.21425 | -53.71844 | 37964 ft | 447 kts | 247° |
| 2026-05-09 15:29 | 49.19811 | -53.81061 | 37963 ft | 448 kts | 248° |
| 2026-05-09 15:29 | 49.18196 | -53.90234 | 37965 ft | 448 kts | 248° |
| 2026-05-09 15:30 | 49.16573 | -53.99410 | 37967 ft | 449 kts | 248° |
| 2026-05-09 15:30 | 49.14933 | -54.08630 | 37968 ft | 449 kts | 248° |
| 2026-05-09 15:31 | 49.13294 | -54.17799 | 37964 ft | 449 kts | 248° |
| 2026-05-09 15:31 | 49.11635 | -54.27031 | 37968 ft | 449 kts | 248° |
| 2026-05-09 15:32 | 49.09977 | -54.36210 | 37972 ft | 450 kts | 248° |
| 2026-05-09 15:32 | 49.08304 | -54.45426 | 37972 ft | 450 kts | 248° |
| 2026-05-09 15:33 | 49.06635 | -54.54576 | 37970 ft | 450 kts | 248° |
| 2026-05-09 15:33 | 49.04949 | -54.63773 | 37968 ft | 450 kts | 248° |
| 2026-05-09 15:34 | 49.03251 | -54.72985 | 37972 ft | 450 kts | 248° |
| 2026-05-09 15:34 | 49.01550 | -54.82175 | 37972 ft | 450 kts | 248° |
| 2026-05-09 15:35 | 48.99849 | -54.91312 | 37966 ft | 450 kts | 248° |
| 2026-05-09 15:35 | 48.98133 | -55.00484 | 37962 ft | 450 kts | 248° |
| 2026-05-09 15:36 | 48.96405 | -55.09679 | 37963 ft | 450 kts | 248° |
| 2026-05-09 15:36 | 48.94673 | -55.18849 | 37958 ft | 450 kts | 248° |
| 2026-05-09 15:37 | 48.92946 | -55.27946 | 37953 ft | 450 kts | 248° |
| 2026-05-09 15:37 | 48.91194 | -55.37136 | 37952 ft | 450 kts | 248° |
| 2026-05-09 15:38 | 48.89445 | -55.46261 | 37934 ft | 450 kts | 248° |
| 2026-05-09 15:38 | 48.87691 | -55.55368 | 37932 ft | 450 kts | 248° |
| 2026-05-09 15:39 | 48.85922 | -55.64514 | 37936 ft | 450 kts | 248° |
| 2026-05-09 15:39 | 48.84147 | -55.73645 | 37933 ft | 450 kts | 248° |
| 2026-05-09 15:40 | 48.82377 | -55.82708 | 37932 ft | 450 kts | 248° |
| 2026-05-09 15:40 | 48.80587 | -55.91828 | 37935 ft | 450 kts | 248° |
| 2026-05-09 15:41 | 48.78796 | -56.00911 | 37932 ft | 450 kts | 248° |
| 2026-05-09 15:41 | 48.76996 | -56.09996 | 37930 ft | 450 kts | 248° |
| 2026-05-09 15:42 | 48.75182 | -56.19107 | 37926 ft | 450 kts | 248° |
| 2026-05-09 15:42 | 48.73374 | -56.28148 | 37921 ft | 450 kts | 248° |
| 2026-05-09 15:43 | 48.71559 | -56.37182 | 37922 ft | 450 kts | 248° |
| 2026-05-09 15:43 | 48.69726 | -56.46263 | 37919 ft | 450 kts | 248° |
| 2026-05-09 15:44 | 48.67886 | -56.55341 | 37921 ft | 450 kts | 248° |
| 2026-05-09 15:44 | 48.66052 | -56.64344 | 37920 ft | 450 kts | 248° |
| 2026-05-09 15:45 | 48.64190 | -56.73441 | 37910 ft | 450 kts | 248° |
| 2026-05-09 15:45 | 48.62343 | -56.82427 | 37908 ft | 451 kts | 248° |
| 2026-05-09 15:46 | 48.60475 | -56.91471 | 37920 ft | 451 kts | 248° |
| 2026-05-09 15:46 | 48.58593 | -57.00545 | 37928 ft | 451 kts | 248° |
| 2026-05-09 15:47 | 48.56719 | -57.09540 | 37942 ft | 451 kts | 248° |
| 2026-05-09 15:47 | 48.54823 | -57.18595 | 37951 ft | 451 kts | 248° |
| 2026-05-09 15:48 | 48.52920 | -57.27648 | 37962 ft | 452 kts | 248° |
| 2026-05-09 15:48 | 48.51022 | -57.36629 | 37967 ft | 452 kts | 248° |
| 2026-05-09 15:49 | 48.49099 | -57.45699 | 37976 ft | 452 kts | 248° |
| 2026-05-09 15:49 | 48.47187 | -57.54677 | 37983 ft | 452 kts | 248° |
| 2026-05-09 15:50 | 48.45251 | -57.63719 | 37985 ft | 452 kts | 248° |
| 2026-05-09 15:50 | 48.43307 | -57.72762 | 37991 ft | 452 kts | 248° |
| 2026-05-09 15:51 | 48.41368 | -57.81742 | 37994 ft | 452 kts | 249° |
| 2026-05-09 15:51 | 48.39414 | -57.90757 | 37998 ft | 453 kts | 249° |
| 2026-05-09 15:52 | 48.36478 | -58.04226 | 38003 ft | 453 kts | 249° |
| 2026-05-09 15:53 | 48.34503 | -58.13236 | 38014 ft | 453 kts | 249° |
| 2026-05-09 15:53 | 48.32519 | -58.22247 | 38011 ft | 453 kts | 249° |
| 2026-05-09 15:54 | 48.30542 | -58.31190 | 38015 ft | 453 kts | 249° |
| 2026-05-09 15:54 | 48.28540 | -58.40202 | 38019 ft | 454 kts | 249° |
| 2026-05-09 15:55 | 48.26545 | -58.49146 | 38028 ft | 454 kts | 249° |
| 2026-05-09 15:55 | 48.24529 | -58.58149 | 38032 ft | 454 kts | 249° |
| 2026-05-09 15:56 | 48.22499 | -58.67170 | 38038 ft | 454 kts | 249° |
| 2026-05-09 15:56 | 48.20484 | -58.76095 | 38040 ft | 454 kts | 249° |
| 2026-05-09 15:57 | 48.18444 | -58.85090 | 38043 ft | 454 kts | 249° |
| 2026-05-09 15:57 | 48.16411 | -58.94015 | 38045 ft | 454 kts | 249° |
| 2026-05-09 15:58 | 48.14361 | -59.02978 | 38046 ft | 454 kts | 249° |
| 2026-05-09 15:58 | 48.12319 | -59.11864 | 38050 ft | 453 kts | 249° |
| 2026-05-09 15:59 | 48.10260 | -59.20792 | 38056 ft | 452 kts | 249° |
| 2026-05-09 15:59 | 48.08199 | -59.29692 | 38055 ft | 452 kts | 249° |
| 2026-05-09 16:00 | 48.06143 | -59.38529 | 38053 ft | 452 kts | 249° |
| 2026-05-09 16:00 | 48.04069 | -59.47411 | 38052 ft | 452 kts | 249° |
| 2026-05-09 16:01 | 48.01989 | -59.56282 | 38052 ft | 452 kts | 249° |
| 2026-05-09 16:01 | 47.99901 | -59.65149 | 38058 ft | 451 kts | 249° |
| 2026-05-09 16:02 | 47.97814 | -59.73975 | 38057 ft | 451 kts | 249° |
| 2026-05-09 16:02 | 47.94675 | -59.87187 | 38054 ft | 451 kts | 249° |
| 2026-05-09 16:03 | 47.92585 | -59.95958 | 38061 ft | 451 kts | 249° |
| 2026-05-09 16:03 | 47.90475 | -60.04751 | 38058 ft | 449 kts | 249° |
| 2026-05-09 16:04 | 47.88363 | -60.13521 | 38058 ft | 448 kts | 249° |
| 2026-05-09 16:04 | 47.86261 | -60.22219 | 38060 ft | 448 kts | 249° |
| 2026-05-09 16:05 | 47.84142 | -60.30954 | 38052 ft | 447 kts | 249° |
| 2026-05-09 16:05 | 47.82024 | -60.39647 | 38055 ft | 446 kts | 249° |
| 2026-05-09 16:06 | 47.79915 | -60.48272 | 38061 ft | 445 kts | 248° |
| 2026-05-09 16:06 | 47.77788 | -60.56934 | 38057 ft | 445 kts | 248° |
| 2026-05-09 16:07 | 47.75671 | -60.65526 | 38057 ft | 444 kts | 248° |
| 2026-05-09 16:07 | 47.73533 | -60.74168 | 38062 ft | 444 kts | 248° |
| 2026-05-09 16:08 | 47.71406 | -60.82734 | 38055 ft | 443 kts | 248° |
| 2026-05-09 16:08 | 47.69263 | -60.91327 | 38055 ft | 443 kts | 248° |
| 2026-05-09 16:09 | 47.67117 | -60.99903 | 38055 ft | 443 kts | 248° |
| 2026-05-09 16:09 | 47.64972 | -61.08442 | 38050 ft | 443 kts | 248° |
| 2026-05-09 16:10 | 47.62808 | -61.17026 | 38052 ft | 443 kts | 248° |
| 2026-05-09 16:10 | 47.60651 | -61.25549 | 38046 ft | 443 kts | 248° |
| 2026-05-09 16:11 | 47.58474 | -61.34120 | 38039 ft | 443 kts | 248° |
| 2026-05-09 16:11 | 47.56302 | -61.42636 | 38033 ft | 443 kts | 248° |
| 2026-05-09 16:12 | 47.54488 | -61.49725 | 38029 ft | 443 kts | 248° |
| 2026-05-09 16:12 | 47.51939 | -61.59650 | 38044 ft | 443 kts | 248° |
| 2026-05-09 16:13 | 47.50111 | -61.66741 | 38046 ft | 442 kts | 247° |
| 2026-05-09 16:13 | 47.47911 | -61.75246 | 38046 ft | 442 kts | 247° |
| 2026-05-09 16:14 | 47.45705 | -61.83744 | 38047 ft | 442 kts | 247° |
| 2026-05-09 16:14 | 47.43510 | -61.92167 | 38047 ft | 442 kts | 247° |
| 2026-05-09 16:15 | 47.41294 | -62.00643 | 38051 ft | 441 kts | 247° |
| 2026-05-09 16:15 | 47.39076 | -62.09091 | 38057 ft | 441 kts | 247° |
| 2026-05-09 16:16 | 47.36847 | -62.17554 | 38064 ft | 441 kts | 247° |
| 2026-05-09 16:16 | 47.34634 | -62.25923 | 38063 ft | 440 kts | 247° |
| 2026-05-09 16:17 | 47.32403 | -62.34335 | 38064 ft | 440 kts | 247° |
| 2026-05-09 16:17 | 47.30165 | -62.42739 | 38060 ft | 440 kts | 246° |
| 2026-05-09 16:18 | 47.27923 | -62.51127 | 38068 ft | 439 kts | 246° |
| 2026-05-09 16:18 | 47.25695 | -62.59434 | 38068 ft | 439 kts | 246° |
| 2026-05-09 16:19 | 47.23440 | -62.67811 | 38059 ft | 439 kts | 246° |
| 2026-05-09 16:19 | 47.21183 | -62.76168 | 38061 ft | 439 kts | 246° |
| 2026-05-09 16:20 | 47.18918 | -62.84523 | 38058 ft | 439 kts | 246° |
| 2026-05-09 16:20 | 47.16663 | -62.92811 | 38065 ft | 439 kts | 246° |
| 2026-05-09 16:21 | 47.14387 | -63.01149 | 38050 ft | 439 kts | 246° |
| 2026-05-09 16:21 | 47.12113 | -63.09451 | 38057 ft | 439 kts | 246° |
| 2026-05-09 16:22 | 47.09823 | -63.17781 | 38059 ft | 440 kts | 246° |
| 2026-05-09 16:22 | 47.07522 | -63.26121 | 38061 ft | 440 kts | 246° |
| 2026-05-09 16:23 | 47.05233 | -63.34388 | 38042 ft | 440 kts | 246° |
| 2026-05-09 16:23 | 47.02923 | -63.42705 | 38040 ft | 440 kts | 246° |
| 2026-05-09 16:24 | 47.00606 | -63.51018 | 38045 ft | 440 kts | 246° |
| 2026-05-09 16:24 | 46.98291 | -63.59291 | 38062 ft | 440 kts | 246° |
| 2026-05-09 16:25 | 46.95961 | -63.67594 | 38064 ft | 440 kts | 246° |
| 2026-05-09 16:25 | 46.93633 | -63.75860 | 38042 ft | 440 kts | 246° |
| 2026-05-09 16:26 | 46.91289 | -63.84152 | 38032 ft | 440 kts | 246° |
| 2026-05-09 16:26 | 46.88952 | -63.92394 | 38037 ft | 440 kts | 246° |
| 2026-05-09 16:27 | 46.86594 | -64.00681 | 38042 ft | 440 kts | 245° |
| 2026-05-09 16:27 | 46.84241 | -64.08918 | 38060 ft | 440 kts | 245° |
| 2026-05-09 16:28 | 46.81870 | -64.17190 | 38044 ft | 441 kts | 245° |
| 2026-05-09 16:28 | 46.79497 | -64.25449 | 38044 ft | 441 kts | 245° |
| 2026-05-09 16:29 | 46.77124 | -64.33676 | 38045 ft | 441 kts | 245° |
| 2026-05-09 16:29 | 46.74734 | -64.41935 | 38041 ft | 441 kts | 245° |
| 2026-05-09 16:30 | 46.72352 | -64.50137 | 38038 ft | 441 kts | 245° |
| 2026-05-09 16:30 | 46.69964 | -64.58334 | 38036 ft | 441 kts | 245° |
| 2026-05-09 16:31 | 46.67557 | -64.66568 | 38033 ft | 441 kts | 245° |
| 2026-05-09 16:31 | 46.65152 | -64.74770 | 38026 ft | 440 kts | 245° |
| 2026-05-09 16:32 | 46.63142 | -64.81599 | 38027 ft | 441 kts | 245° |
| 2026-05-09 16:32 | 46.60331 | -64.91123 | 38022 ft | 441 kts | 245° |
| 2026-05-09 16:33 | 46.57915 | -64.99280 | 38020 ft | 441 kts | 245° |
| 2026-05-09 16:33 | 46.55482 | -65.07464 | 38019 ft | 441 kts | 245° |
| 2026-05-09 16:34 | 46.53041 | -65.15650 | 38019 ft | 441 kts | 245° |
| 2026-05-09 16:34 | 46.50595 | -65.23825 | 38026 ft | 441 kts | 245° |
| 2026-05-09 16:35 | 46.48145 | -65.31990 | 38026 ft | 441 kts | 245° |
| 2026-05-09 16:35 | 46.45694 | -65.40126 | 38032 ft | 441 kts | 245° |
| 2026-05-09 16:36 | 46.40770 | -65.56398 | 38036 ft | 440 kts | 245° |
| 2026-05-09 16:37 | 46.38315 | -65.64472 | 38034 ft | 440 kts | 245° |
| 2026-05-09 16:37 | 46.35834 | -65.72608 | 38031 ft | 440 kts | 245° |
| 2026-05-09 16:38 | 46.33363 | -65.80679 | 38030 ft | 440 kts | 245° |
| 2026-05-09 16:38 | 46.30873 | -65.88789 | 38029 ft | 439 kts | 245° |
| 2026-05-09 16:39 | 46.28384 | -65.96871 | 38027 ft | 439 kts | 245° |
| 2026-05-09 16:39 | 46.25904 | -66.04895 | 38030 ft | 439 kts | 245° |
| 2026-05-09 16:40 | 46.23406 | -66.12955 | 38031 ft | 439 kts | 245° |
| 2026-05-09 16:42 | 46.13357 | -66.45116 | 38030 ft | 440 kts | 245° |
| 2026-05-09 16:42 | 46.10841 | -66.53107 | 38031 ft | 440 kts | 245° |
| 2026-05-09 16:43 | 46.08301 | -66.61148 | 38034 ft | 440 kts | 245° |
| 2026-05-09 16:43 | 46.05756 | -66.69178 | 38033 ft | 440 kts | 245° |
| 2026-05-09 16:44 | 46.03215 | -66.77172 | 38030 ft | 440 kts | 245° |
| 2026-05-09 16:44 | 46.00669 | -66.85157 | 38033 ft | 440 kts | 245° |
| 2026-05-09 16:45 | 45.98109 | -66.93159 | 38028 ft | 440 kts | 244° |
| 2026-05-09 16:45 | 45.95540 | -67.01166 | 38026 ft | 440 kts | 244° |
| 2026-05-09 16:46 | 45.92966 | -67.09163 | 38027 ft | 440 kts | 244° |
| 2026-05-09 16:46 | 45.90392 | -67.17141 | 38024 ft | 440 kts | 245° |
| 2026-05-09 16:47 | 45.87815 | -67.25118 | 38008 ft | 441 kts | 245° |
| 2026-05-09 16:47 | 45.85245 | -67.33049 | 38018 ft | 441 kts | 245° |
| 2026-05-09 16:48 | 45.82651 | -67.41031 | 38038 ft | 440 kts | 244° |
| 2026-05-09 16:48 | 45.80068 | -67.48955 | 38034 ft | 440 kts | 244° |
| 2026-05-09 16:49 | 45.77461 | -67.56926 | 38020 ft | 441 kts | 244° |
| 2026-05-09 16:50 | 45.73561 | -67.68806 | 38026 ft | 441 kts | 244° |
| 2026-05-09 16:50 | 45.70583 | -67.76498 | 38027 ft | 441 kts | 237° |
| 2026-05-09 16:51 | 45.66933 | -67.83498 | 38028 ft | 442 kts | 230° |
| 2026-05-09 16:51 | 45.62515 | -67.89658 | 38022 ft | 443 kts | 224° |
| 2026-05-09 16:52 | 45.57977 | -67.95562 | 38029 ft | 443 kts | 224° |
| 2026-05-09 16:52 | 45.53408 | -68.01519 | 38038 ft | 444 kts | 224° |
| 2026-05-09 16:53 | 45.48858 | -68.07416 | 38043 ft | 444 kts | 224° |
| 2026-05-09 16:53 | 45.44272 | -68.13340 | 38041 ft | 444 kts | 224° |
| 2026-05-09 16:54 | 45.39670 | -68.19271 | 38049 ft | 445 kts | 224° |
| 2026-05-09 16:54 | 45.35096 | -68.25152 | 38049 ft | 445 kts | 224° |
| 2026-05-09 16:55 | 45.30497 | -68.31053 | 38047 ft | 445 kts | 224° |
| 2026-05-09 16:55 | 45.25920 | -68.36912 | 38049 ft | 445 kts | 224° |
| 2026-05-09 16:56 | 45.21305 | -68.42805 | 38043 ft | 445 kts | 224° |
| 2026-05-09 16:56 | 45.16688 | -68.48689 | 38046 ft | 445 kts | 224° |
| 2026-05-09 16:57 | 45.12856 | -68.53563 | 38052 ft | 445 kts | 224° |
| 2026-05-09 16:57 | 45.07483 | -68.60381 | 38046 ft | 445 kts | 224° |
| 2026-05-09 16:58 | 45.03633 | -68.65255 | 38029 ft | 446 kts | 224° |
| 2026-05-09 16:58 | 44.98999 | -68.71109 | 38032 ft | 445 kts | 224° |
| 2026-05-09 16:59 | 44.94373 | -68.76940 | 38020 ft | 445 kts | 224° |
| 2026-05-09 16:59 | 44.89733 | -68.82776 | 38021 ft | 445 kts | 224° |
| 2026-05-09 17:00 | 44.85120 | -68.88565 | 38024 ft | 446 kts | 224° |
| 2026-05-09 17:00 | 44.80467 | -68.94391 | 38021 ft | 446 kts | 224° |
| 2026-05-09 17:01 | 44.75850 | -69.00159 | 38018 ft | 446 kts | 224° |
| 2026-05-09 17:01 | 44.71196 | -69.05960 | 38030 ft | 446 kts | 224° |
| 2026-05-09 17:02 | 44.66523 | -69.11770 | 38032 ft | 446 kts | 224° |
| 2026-05-09 17:02 | 44.61886 | -69.17523 | 38025 ft | 446 kts | 224° |
| 2026-05-09 17:03 | 44.57252 | -69.23259 | 37686 ft | 446 kts | 224° |
| 2026-05-09 17:04 | 44.40975 | -69.43310 | 38006 ft | 445 kts | 224° |
| 2026-05-09 17:05 | 44.38649 | -69.46163 | 38005 ft | 444 kts | 224° |
| 2026-05-09 17:05 | 44.33988 | -69.51871 | 38025 ft | 444 kts | 224° |
| 2026-05-09 17:06 | 44.29364 | -69.57521 | 38021 ft | 444 kts | 224° |
| 2026-05-09 17:06 | 44.24702 | -69.63203 | 38025 ft | 443 kts | 224° |
| 2026-05-09 17:07 | 44.20056 | -69.68854 | 38023 ft | 443 kts | 224° |
| 2026-05-09 17:07 | 44.15436 | -69.74462 | 38026 ft | 442 kts | 224° |
| 2026-05-09 17:08 | 44.10794 | -69.80085 | 38057 ft | 442 kts | 224° |
| 2026-05-09 17:08 | 44.03814 | -69.88515 | 38063 ft | 442 kts | 224° |
| 2026-05-09 17:09 | 43.99194 | -69.94080 | 38074 ft | 442 kts | 224° |
| 2026-05-09 17:09 | 43.94538 | -69.99678 | 38074 ft | 442 kts | 224° |
| 2026-05-09 17:10 | 43.89880 | -70.05263 | 38075 ft | 442 kts | 224° |
| 2026-05-09 17:10 | 43.85255 | -70.10798 | 38071 ft | 442 kts | 224° |
| 2026-05-09 17:11 | 43.80579 | -70.16383 | 38064 ft | 443 kts | 224° |
| 2026-05-09 17:11 | 43.75904 | -70.21955 | 38059 ft | 443 kts | 224° |
| 2026-05-09 17:12 | 43.71251 | -70.27488 | 38055 ft | 443 kts | 224° |
| 2026-05-09 17:12 | 43.66575 | -70.33037 | 38078 ft | 443 kts | 224° |
| 2026-05-09 17:13 | 43.61884 | -70.38591 | 38059 ft | 443 kts | 224° |
| 2026-05-09 17:13 | 43.57222 | -70.44100 | 38062 ft | 443 kts | 224° |
| 2026-05-09 17:14 | 43.52519 | -70.49646 | 38058 ft | 443 kts | 224° |
| 2026-05-09 17:14 | 43.47858 | -70.55132 | 38052 ft | 443 kts | 224° |
| 2026-05-09 17:15 | 43.42827 | -70.60112 | 38053 ft | 448 kts | 216° |
| 2026-05-09 17:15 | 43.37229 | -70.63993 | 38054 ft | 454 kts | 207° |
| 2026-05-09 17:17 | 43.13378 | -70.75691 | 38028 ft | 455 kts | 205° |
| 2026-05-09 17:18 | 43.07443 | -70.78589 | 38028 ft | 454 kts | 205° |
| 2026-05-09 17:18 | 43.01476 | -70.81498 | 38027 ft | 454 kts | 205° |
| 2026-05-09 17:19 | 42.95554 | -70.84378 | 38031 ft | 453 kts | 205° |
| 2026-05-09 17:19 | 42.89631 | -70.87253 | 38029 ft | 453 kts | 205° |
| 2026-05-09 17:20 | 42.83698 | -70.90127 | 38034 ft | 452 kts | 205° |
| 2026-05-09 17:20 | 42.77745 | -70.93004 | 38031 ft | 452 kts | 205° |
| 2026-05-09 17:21 | 42.71866 | -70.95839 | 38042 ft | 451 kts | 205° |
| 2026-05-09 17:21 | 42.65928 | -70.98698 | 38031 ft | 451 kts | 206° |
| 2026-05-09 17:22 | 42.60017 | -71.01539 | 38029 ft | 450 kts | 206° |
| 2026-05-09 17:22 | 42.54131 | -71.04361 | 38026 ft | 450 kts | 206° |
| 2026-05-09 17:23 | 42.48238 | -71.07180 | 38017 ft | 449 kts | 206° |
| 2026-05-09 17:23 | 42.42324 | -71.10004 | 38018 ft | 449 kts | 206° |
| 2026-05-09 17:25 | 42.24616 | -71.18427 | 37984 ft | 449 kts | 206° |
| 2026-05-09 17:25 | 42.18717 | -71.21221 | 37983 ft | 448 kts | 206° |
| 2026-05-09 17:26 | 42.12850 | -71.23995 | 37988 ft | 448 kts | 206° |
| 2026-05-09 17:26 | 42.06948 | -71.26781 | 37990 ft | 448 kts | 206° |
| 2026-05-09 17:27 | 42.01052 | -71.29558 | 37999 ft | 448 kts | 206° |
| 2026-05-09 17:27 | 41.95197 | -71.32311 | 37998 ft | 448 kts | 206° |
| 2026-05-09 17:28 | 41.89298 | -71.35078 | 37996 ft | 448 kts | 206° |
| 2026-05-09 17:28 | 41.83438 | -71.37821 | 37993 ft | 448 kts | 206° |
| 2026-05-09 17:29 | 41.80498 | -71.39195 | 37773 ft | 447 kts | 206° |
| 2026-05-09 17:29 | 41.77555 | -71.40571 | 37508 ft | 445 kts | 207° |
| 2026-05-09 17:29 | 41.74704 | -71.42135 | 37237 ft | 439 kts | 212° |
| 2026-05-09 17:29 | 41.72019 | -71.44041 | 36976 ft | 434 kts | 218° |
| 2026-05-09 17:30 | 41.69505 | -71.46260 | 36725 ft | 430 kts | 223° |
| 2026-05-09 17:30 | 41.67178 | -71.48745 | 36467 ft | 425 kts | 226° |
| 2026-05-09 17:30 | 41.64947 | -71.51287 | 36137 ft | 425 kts | 226° |
| 2026-05-09 17:30 | 41.62671 | -71.53856 | 35434 ft | 427 kts | 226° |
| 2026-05-09 17:31 | 41.60381 | -71.56422 | 34455 ft | 431 kts | 226° |
| 2026-05-09 17:31 | 41.58625 | -71.58381 | 33573 ft | 432 kts | 226° |
| 2026-05-09 17:32 | 41.49511 | -71.68519 | 29071 ft | 418 kts | 224° |
| 2026-05-09 17:32 | 41.47275 | -71.70997 | 28175 ft | 415 kts | 224° |
| 2026-05-09 17:32 | 41.45070 | -71.73436 | 27505 ft | 408 kts | 224° |
| 2026-05-09 17:33 | 41.42917 | -71.75817 | 26868 ft | 402 kts | 224° |
| 2026-05-09 17:33 | 41.40768 | -71.78191 | 26225 ft | 396 kts | 224° |
| 2026-05-09 17:33 | 41.38660 | -71.80520 | 25607 ft | 390 kts | 224° |
| 2026-05-09 17:33 | 41.36600 | -71.82794 | 25003 ft | 385 kts | 223° |
| 2026-05-09 17:34 | 41.34556 | -71.85049 | 24530 ft | 377 kts | 223° |
| 2026-05-09 17:35 | 41.22997 | -71.97766 | 22292 ft | 351 kts | 223° |
| 2026-05-09 17:35 | 41.21115 | -71.99830 | 21916 ft | 350 kts | 223° |
| 2026-05-09 17:36 | 41.19231 | -72.01895 | 21558 ft | 349 kts | 223° |
| 2026-05-09 17:36 | 41.17394 | -72.03905 | 21204 ft | 341 kts | 223° |
| 2026-05-09 17:36 | 41.15588 | -72.05877 | 20851 ft | 330 kts | 223° |
| 2026-05-09 17:36 | 41.13819 | -72.07811 | 20500 ft | 330 kts | 223° |
| 2026-05-09 17:37 | 41.12048 | -72.09770 | 20149 ft | 330 kts | 225° |
| 2026-05-09 17:37 | 41.10990 | -72.11206 | 19910 ft | 327 kts | 232° |
| 2026-05-09 17:37 | 41.09704 | -72.13666 | 19567 ft | 322 kts | 242° |
| 2026-05-09 17:37 | 41.08595 | -72.17295 | 19118 ft | 319 kts | 252° |
| 2026-05-09 17:38 | 41.08160 | -72.19165 | 18892 ft | 319 kts | 252° |
| 2026-05-09 17:38 | 41.07489 | -72.21961 | 18560 ft | 317 kts | 252° |
| 2026-05-09 17:38 | 41.06809 | -72.24737 | 18228 ft | 316 kts | 251° |
| 2026-05-09 17:39 | 41.05440 | -72.30259 | 17474 ft | 313 kts | 251° |
| 2026-05-09 17:39 | 41.04761 | -72.32993 | 17101 ft | 311 kts | 251° |
| 2026-05-09 17:39 | 41.04091 | -72.35682 | 16743 ft | 309 kts | 251° |
| 2026-05-09 17:39 | 41.03418 | -72.38378 | 16384 ft | 305 kts | 251° |
| 2026-05-09 17:40 | 41.02765 | -72.41000 | 16063 ft | 294 kts | 250° |
| 2026-05-09 17:40 | 41.02128 | -72.43549 | 15731 ft | 290 kts | 250° |
| 2026-05-09 17:40 | 41.01488 | -72.46104 | 15404 ft | 292 kts | 250° |
| 2026-05-09 17:40 | 41.00864 | -72.48595 | 15080 ft | 284 kts | 250° |
| 2026-05-09 17:41 | 41.00251 | -72.51039 | 14780 ft | 275 kts | 250° |
| 2026-05-09 17:41 | 40.99659 | -72.53404 | 14464 ft | 265 kts | 250° |
| 2026-05-09 17:41 | 40.99084 | -72.55692 | 14152 ft | 259 kts | 249° |
| 2026-05-09 17:41 | 40.98510 | -72.57972 | 13841 ft | 262 kts | 249° |
| 2026-05-09 17:42 | 40.97939 | -72.60235 | 13566 ft | 260 kts | 249° |
| 2026-05-09 17:42 | 40.97369 | -72.62496 | 13301 ft | 259 kts | 249° |
| 2026-05-09 17:42 | 40.96796 | -72.64767 | 13038 ft | 259 kts | 249° |
| 2026-05-09 17:42 | 40.96227 | -72.67029 | 12771 ft | 258 kts | 249° |
| 2026-05-09 17:43 | 40.95615 | -72.69233 | 12510 ft | 258 kts | 249° |
| 2026-05-09 17:43 | 40.95081 | -72.71512 | 12254 ft | 259 kts | 250° |
| 2026-05-09 17:43 | 40.94558 | -72.73784 | 12060 ft | 257 kts | 249° |
| 2026-05-09 17:43 | 40.94006 | -72.76043 | 12026 ft | 257 kts | 248° |
| 2026-05-09 17:44 | 40.93427 | -72.78284 | 12009 ft | 258 kts | 248° |
| 2026-05-09 17:44 | 40.92834 | -72.80499 | 11995 ft | 258 kts | 247° |
| 2026-05-09 17:44 | 40.92225 | -72.82743 | 11731 ft | 259 kts | 247° |
| 2026-05-09 17:44 | 40.91616 | -72.84985 | 11401 ft | 257 kts | 247° |
| 2026-05-09 17:45 | 40.91013 | -72.87209 | 11072 ft | 255 kts | 246° |
| 2026-05-09 17:45 | 40.90416 | -72.89399 | 10761 ft | 257 kts | 246° |
| 2026-05-09 17:45 | 40.89811 | -72.91621 | 10436 ft | 256 kts | 246° |
| 2026-05-09 17:45 | 40.89210 | -72.93829 | 10121 ft | 255 kts | 246° |
| 2026-05-09 17:46 | 40.88608 | -72.96036 | 9833 ft | 255 kts | 246° |
| 2026-05-09 17:46 | 40.88020 | -72.98200 | 9504 ft | 244 kts | 246° |
| 2026-05-09 17:46 | 40.87462 | -73.00272 | 9170 ft | 233 kts | 246° |
| 2026-05-09 17:46 | 40.86940 | -73.02253 | 8843 ft | 223 kts | 246° |
| 2026-05-09 17:47 | 40.86448 | -73.04136 | 8535 ft | 217 kts | 246° |
| 2026-05-09 17:47 | 40.85950 | -73.06043 | 8223 ft | 219 kts | 246° |
| 2026-05-09 17:47 | 40.85461 | -73.07925 | 7907 ft | 214 kts | 246° |
| 2026-05-09 17:47 | 40.84984 | -73.09777 | 7601 ft | 215 kts | 246° |
| 2026-05-09 17:48 | 40.84495 | -73.11668 | 7313 ft | 215 kts | 246° |
| 2026-05-09 17:48 | 40.84021 | -73.13499 | 7022 ft | 213 kts | 246° |
| 2026-05-09 17:48 | 40.83536 | -73.15355 | 6718 ft | 213 kts | 246° |
| 2026-05-09 17:48 | 40.83052 | -73.17200 | 6428 ft | 211 kts | 246° |
| 2026-05-09 17:49 | 40.82575 | -73.19025 | 6129 ft | 212 kts | 246° |
| 2026-05-09 17:49 | 40.82097 | -73.20848 | 6007 ft | 210 kts | 246° |
| 2026-05-09 17:49 | 40.81826 | -73.22754 | 6010 ft | 218 kts | 265° |
| 2026-05-09 17:49 | 40.81932 | -73.24770 | 5961 ft | 220 kts | 267° |
| 2026-05-09 17:50 | 40.82025 | -73.26573 | 5789 ft | 220 kts | 267° |
| 2026-05-09 17:50 | 40.82212 | -73.30564 | 5383 ft | 217 kts | 267° |
| 2026-05-09 17:50 | 40.82242 | -73.32553 | 5214 ft | 216 kts | 262° |
| 2026-05-09 17:51 | 40.82192 | -73.34545 | 5035 ft | 215 kts | 262° |
| 2026-05-09 17:51 | 40.82136 | -73.36528 | 4869 ft | 221 kts | 262° |
| 2026-05-09 17:51 | 40.82082 | -73.38549 | 4686 ft | 218 kts | 262° |
| 2026-05-09 17:51 | 40.82031 | -73.40552 | 4511 ft | 218 kts | 262° |
| 2026-05-09 17:52 | 40.81976 | -73.42553 | 4329 ft | 218 kts | 262° |
| 2026-05-09 17:52 | 40.81918 | -73.44526 | 4159 ft | 218 kts | 262° |
| 2026-05-09 17:52 | 40.81847 | -73.46547 | 3973 ft | 216 kts | 262° |
| 2026-05-09 17:52 | 40.81774 | -73.48482 | 3796 ft | 210 kts | 262° |
| 2026-05-09 17:53 | 40.81698 | -73.50360 | 3629 ft | 203 kts | 262° |
| 2026-05-09 17:53 | 40.81613 | -73.52281 | 3457 ft | 211 kts | 262° |
| 2026-05-09 17:53 | 40.81518 | -73.54182 | 3273 ft | 202 kts | 262° |
| 2026-05-09 17:53 | 40.81369 | -73.56007 | 3087 ft | 202 kts | 253° |
| 2026-05-09 17:54 | 40.80907 | -73.57741 | 2998 ft | 199 kts | 247° |
| 2026-05-09 17:54 | 40.80424 | -73.59466 | 2998 ft | 200 kts | 247° |
| 2026-05-09 17:54 | 40.79945 | -73.61161 | 2992 ft | 199 kts | 247° |
| 2026-05-09 17:54 | 40.79448 | -73.62865 | 2993 ft | 194 kts | 243° |
| 2026-05-09 17:55 | 40.78662 | -73.64273 | 2992 ft | 194 kts | 223° |
| 2026-05-09 17:55 | 40.77570 | -73.65294 | 2968 ft | 188 kts | 212° |
| 2026-05-09 17:55 | 40.76456 | -73.66104 | 2781 ft | 176 kts | 211° |
| 2026-05-09 17:55 | 40.75436 | -73.66921 | 2537 ft | 171 kts | 213° |
| 2026-05-09 17:56 | 40.74445 | -73.67690 | 2299 ft | 162 kts | 212° |
| 2026-05-09 17:56 | 40.73452 | -73.68480 | 2085 ft | 167 kts | 213° |
| 2026-05-09 17:56 | 40.72479 | -73.69239 | 1861 ft | 158 kts | 212° |
| 2026-05-09 17:57 | 40.70755 | -73.70599 | 1472 ft | 136 kts | 214° |
| 2026-05-09 17:57 | 40.69956 | -73.71227 | 1280 ft | 129 kts | 212° |
| 2026-05-09 17:57 | 40.69143 | -73.71842 | 1132 ft | 135 kts | 211° |
| 2026-05-09 17:57 | 40.68879 | -73.72035 | 1054 ft | 132 kts | 211° |
| 2026-05-09 17:58 | 40.68192 | -73.72594 | 795 ft | 135 kts | 213° |
| 2026-05-09 17:58 | 40.67380 | -73.73250 | 628 ft | 138 kts | 211° |
| 2026-05-09 17:58 | 40.66564 | -73.73896 | 463 ft | 138 kts | 212° |
| 2026-05-09 17:59 | 40.65730 | -73.74539 | 311 ft | 136 kts | 210° |
| 2026-05-09 17:59 | 40.64901 | -73.75183 | 164 ft | 143 kts | 211° |
| 2026-05-09 17:59 | 40.64074 | -73.75837 | 28 ft | 131 kts | 211° |
| 2026-05-09 17:59 | 40.63477 | -73.76316 | 27 ft | 72 kts | 210° |
| 2026-05-09 18:00 | 40.63124 | -73.76588 | 27 ft | 43 kts | 210° |
| 2026-05-09 18:00 | 40.62948 | -73.76843 | 26 ft | 24 kts | 241° |
| 2026-05-09 18:00 | 40.62942 | -73.76998 | 24 ft | 16 kts | 295° |
| 2026-05-09 18:00 | 40.62993 | -73.77113 | 25 ft | 14 kts | 300° |
| 2026-05-09 18:01 | 40.63042 | -73.77223 | 23 ft | 14 kts | 301° |
| 2026-05-09 18:01 | 40.63092 | -73.77332 | 24 ft | 12 kts | 301° |
| 2026-05-09 18:01 | 40.63136 | -73.77427 | 26 ft | 12 kts | 301° |
| 2026-05-09 18:01 | 40.63181 | -73.77524 | 25 ft | 12 kts | 301° |
| 2026-05-09 18:02 | 40.63224 | -73.77617 | 28 ft | 11 kts | 301° |
| 2026-05-09 18:02 | 40.63258 | -73.77690 | 27 ft | 8 kts | 301° |
| 2026-05-09 18:02 | 40.63305 | -73.77792 | 30 ft | 16 kts | 301° |
| 2026-05-09 18:02 | 40.63385 | -73.77813 | 26 ft | 9 kts | 39° |
| 2026-05-09 18:03 | 40.63441 | -73.77757 | 27 ft | 12 kts | 30° |
| 2026-05-09 18:03 | 40.63534 | -73.77687 | 25 ft | 20 kts | 30° |
| 2026-05-09 18:03 | 40.63658 | -73.77591 | 26 ft | 20 kts | 31° |
| 2026-05-09 18:03 | 40.63774 | -73.77499 | 23 ft | 18 kts | 31° |
| 2026-05-09 18:04 | 40.63882 | -73.77412 | 26 ft | 18 kts | 31° |
| 2026-05-09 18:04 | 40.63981 | -73.77336 | 26 ft | 16 kts | 28° |
| 2026-05-09 18:04 | 40.64081 | -73.77259 | 27 ft | 18 kts | 31° |
| 2026-05-09 18:04 | 40.64196 | -73.77168 | 27 ft | 21 kts | 30° |
| 2026-05-09 18:05 | 40.64327 | -73.77065 | 25 ft | 22 kts | 31° |
| 2026-05-09 18:05 | 40.64459 | -73.76990 | 23 ft | 20 kts | 7° |
| 2026-05-09 18:05 | 40.64588 | -73.76988 | 25 ft | 17 kts | 360° |
| 2026-05-09 18:05 | 40.64692 | -73.77006 | 27 ft | 15 kts | 339° |
| 2026-05-09 18:06 | 40.64780 | -73.77108 | 26 ft | 20 kts | 304° |
| 2026-05-09 18:06 | 40.64851 | -73.77265 | 25 ft | 19 kts | 301° |
| 2026-05-09 18:06 | 40.64917 | -73.77408 | 23 ft | 19 kts | 301° |
| 2026-05-09 18:06 | 40.64984 | -73.77558 | 25 ft | 18 kts | 300° |
| 2026-05-09 18:07 | 40.65043 | -73.77689 | 23 ft | 16 kts | 301° |
| 2026-05-09 18:07 | 40.65095 | -73.77804 | 24 ft | 14 kts | 301° |
| 2026-05-09 18:07 | 40.65138 | -73.77899 | 26 ft | 11 kts | 301° |
| 2026-05-09 18:07 | 40.65172 | -73.77972 | 27 ft | 8 kts | 301° |
| 2026-05-09 18:08 | 40.65199 | -73.78029 | 24 ft | 8 kts | 301° |
| 2026-05-09 18:08 | 40.65210 | -73.78107 | 24 ft | 8 kts | 252° |
| 2026-05-09 18:08 | 40.65186 | -73.78165 | 22 ft | 7 kts | 259° |
| 2026-05-09 18:08 | 40.65188 | -73.78241 | 25 ft | 9 kts | 255° |
| 2026-05-09 18:09 | 40.65167 | -73.78264 | 22 ft | 1 kts | 209° |
| 2026-05-09 18:09 | 40.65138 | -73.78282 | 23 ft | 8 kts | 209° |
| 2026-05-09 18:09 | 40.65109 | -73.78307 | 26 ft | 1 kts | 213° |